Wetterdaten: Freitag, 20.06.2014
Datum Zeit Temp. Aussen +5cm Feuchte Auss Luftdruck Regen Sonnenschein Regendauer UV Solar Windben
20.06.2014 00:00 12,1 C 10,6 C 95 % 1019,1 hPa 0,0 l/m 0 min 0 min 0,0 UV-I 0 W/m 0,0 km/h (0 Bft)
20.06.2014 00:02 12,1 C 10,6 C 96 % 1019,1 hPa 0,0 l/m 0 min 0 min 0,0 UV-I 0 W/m 6,3 km/h (2 Bft)
20.06.2014 00:06 12,1 C 10,6 C 96 % 1019,1 hPa 0,0 l/m 0 min 0 min 0,0 UV-I 0 W/m 0,0 km/h (0 Bft)
20.06.2014 00:08 12,0 C 10,6 C 96 % 1019,1 hPa 0,0 l/m 0 min 0 min 0,0 UV-I 0 W/m 0,0 km/h (0 Bft)
20.06.2014 00:10 12,0 C 10,6 C 96 % 1019,0 hPa 0,0 l/m 0 min 0 min 0,0 UV-I 0 W/m 8,4 km/h (2 Bft)
20.06.2014 00:12 12,0 C 10,6 C 96 % 1019,0 hPa 0,0 l/m 0 min 0 min 0,0 UV-I 0 W/m 10,5 km/h (2 Bft)
20.06.2014 00:14 12,0 C 10,6 C 96 % 1019,0 hPa 0,0 l/m 0 min 0 min 0,0 UV-I 0 W/m 8,4 km/h (2 Bft)
20.06.2014 00:16 12,0 C 10,6 C 96 % 1019,0 hPa 0,0 l/m 0 min 0 min 0,0 UV-I 0 W/m 0,0 km/h (0 Bft)
20.06.2014 00:18 11,9 C 10,6 C 96 % 1019,0 hPa 0,0 l/m 0 min 0 min 0,0 UV-I 0 W/m 6,3 km/h (2 Bft)
20.06.2014 00:20 11,9 C 10,6 C 96 % 1019,1 hPa 0,0 l/m 0 min 0 min 0,0 UV-I 0 W/m 8,4 km/h (2 Bft)
20.06.2014 00:22 11,9 C 10,6 C 96 % 1019,1 hPa 0,0 l/m 0 min 0 min 0,0 UV-I 0 W/m 0,0 km/h (0 Bft)
20.06.2014 00:24 11,9 C 10,6 C 96 % 1019,1 hPa 0,0 l/m 0 min 0 min 0,0 UV-I 0 W/m 8,4 km/h (2 Bft)
20.06.2014 00:26 11,9 C 10,6 C 96 % 1019,2 hPa 0,0 l/m 0 min 0 min 0,0 UV-I 0 W/m 0,0 km/h (0 Bft)
20.06.2014 00:28 11,9 C 10,6 C 96 % 1019,2 hPa 0,0 l/m 0 min 0 min 0,0 UV-I 0 W/m 6,3 km/h (2 Bft)
20.06.2014 00:30 11,9 C 10,6 C 96 % 1019,1 hPa 0,0 l/m 0 min 0 min 0,0 UV-I 0 W/m 6,3 km/h (2 Bft)
20.06.2014 00:32 11,9 C 10,6 C 96 % 1019,1 hPa 0,0 l/m 0 min 0 min 0,0 UV-I 0 W/m 0,0 km/h (0 Bft)
20.06.2014 00:34 11,9 C 10,6 C 96 % 1019,1 hPa 0,0 l/m 0 min 0 min 0,0 UV-I 0 W/m 4,2 km/h (1 Bft)
20.06.2014 00:36 11,8 C 10,6 C 96 % 1019,1 hPa 0,0 l/m 0 min 0 min 0,0 UV-I 0 W/m 2,1 km/h (1 Bft)
20.06.2014 00:38 11,8 C 10,6 C 96 % 1019,1 hPa 0,0 l/m 0 min 0 min 0,0 UV-I 0 W/m 0,0 km/h (0 Bft)
20.06.2014 00:40 11,8 C 10,0 C 96 % 1019,1 hPa 0,0 l/m 0 min 0 min 0,0 UV-I 0 W/m 0,0 km/h (0 Bft)
20.06.2014 00:42 11,8 C 10,0 C 96 % 1019,1 hPa 0,0 l/m 0 min 0 min 0,0 UV-I 0 W/m 0,0 km/h (0 Bft)
20.06.2014 00:44 11,7 C 10,6 C 96 % 1019,1 hPa 0,0 l/m 0 min 0 min 0,0 UV-I 0 W/m 0,0 km/h (0 Bft)
20.06.2014 00:46 11,7 C 10,6 C 96 % 1019,0 hPa 0,0 l/m 0 min 0 min 0,0 UV-I 0 W/m 0,0 km/h (0 Bft)
20.06.2014 00:48 11,7 C 10,0 C 97 % 1019,1 hPa 0,0 l/m 0 min 0 min 0,0 UV-I 0 W/m 0,0 km/h (0 Bft)
20.06.2014 00:50 11,7 C 10,6 C 96 % 1019,0 hPa 0,0 l/m 0 min 0 min 0,0 UV-I 0 W/m 2,1 km/h (1 Bft)
20.06.2014 00:52 11,7 C 10,6 C 97 % 1019,1 hPa 0,0 l/m 0 min 0 min 0,0 UV-I 0 W/m 6,3 km/h (2 Bft)
20.06.2014 00:54 11,7 C 10,6 C 97 % 1019,1 hPa 0,0 l/m 0 min 0 min 0,0 UV-I 0 W/m 4,2 km/h (1 Bft)
20.06.2014 00:56 11,7 C 10,6 C 96 % 1019,0 hPa 0,0 l/m 0 min 0 min 0,0 UV-I 0 W/m 6,3 km/h (2 Bft)
20.06.2014 00:58 11,7 C 10,0 C 96 % 1019,0 hPa 0,0 l/m 0 min 0 min 0,0 UV-I 0 W/m 8,4 km/h (2 Bft)
20.06.2014 01:00 11,7 C 10,6 C 96 % 1019,1 hPa 0,0 l/m 0 min 0 min 0,0 UV-I 0 W/m 0,0 km/h (0 Bft)
20.06.2014 01:02 11,7 C 10,6 C 97 % 1019,0 hPa 0,0 l/m 0 min 0 min 0,0 UV-I 0 W/m 8,4 km/h (2 Bft)
20.06.2014 01:04 11,7 C 10,6 C 97 % 1019,1 hPa 0,0 l/m 0 min 0 min 0,0 UV-I 0 W/m 6,3 km/h (2 Bft)
20.06.2014 01:06 11,7 C 10,6 C 97 % 1019,0 hPa 0,0 l/m 0 min 0 min 0,0 UV-I 0 W/m 0,0 km/h (0 Bft)
20.06.2014 01:08 11,7 C 10,0 C 97 % 1019,0 hPa 0,0 l/m 0 min 0 min 0,0 UV-I 0 W/m 4,2 km/h (1 Bft)
20.06.2014 01:10 11,7 C 10,0 C 97 % 1019,0 hPa 0,0 l/m 0 min 0 min 0,0 UV-I 0 W/m 8,4 km/h (2 Bft)
20.06.2014 01:12 11,7 C 10,0 C 97 % 1019,0 hPa 0,0 l/m 0 min 0 min 0,0 UV-I 0 W/m 0,0 km/h (0 Bft)
20.06.2014 01:14 11,7 C 10,0 C 97 % 1019,0 hPa 0,0 l/m 0 min 0 min 0,0 UV-I 0 W/m 2,1 km/h (1 Bft)
20.06.2014 01:16 11,6 C 10,0 C 97 % 1019,0 hPa 0,0 l/m 0 min 0 min 0,0 UV-I 0 W/m 6,3 km/h (2 Bft)
20.06.2014 01:18 11,6 C 10,0 C 97 % 1019,0 hPa 0,0 l/m 0 min 0 min 0,0 UV-I 0 W/m 4,2 km/h (1 Bft)
20.06.2014 01:20 11,6 C 10,0 C 97 % 1018,9 hPa 0,0 l/m 0 min 0 min 0,0 UV-I 0 W/m 6,3 km/h (2 Bft)
20.06.2014 01:22 11,6 C 10,6 C 97 % 1018,9 hPa 0,0 l/m 0 min 0 min 0,0 UV-I 0 W/m 4,2 km/h (1 Bft)
20.06.2014 01:24 11,6 C 10,0 C 97 % 1019,0 hPa 0,0 l/m 0 min 0 min 0,0 UV-I 0 W/m 8,4 km/h (2 Bft)
20.06.2014 01:26 11,6 C 10,0 C 97 % 1019,0 hPa 0,0 l/m 0 min 0 min 0,0 UV-I 0 W/m 8,4 km/h (2 Bft)
20.06.2014 01:28 11,6 C 10,6 C 97 % 1019,0 hPa 0,0 l/m 0 min 0 min 0,0 UV-I 0 W/m 8,4 km/h (2 Bft)
20.06.2014 01:30 11,6 C 10,6 C 97 % 1018,9 hPa 0,0 l/m 0 min 0 min 0,0 UV-I 0 W/m 8,4 km/h (2 Bft)
20.06.2014 01:32 11,7 C 10,6 C 97 % 1018,9 hPa 0,0 l/m 0 min 0 min 0,0 UV-I 0 W/m 12,6 km/h (3 Bft)
20.06.2014 01:34 11,7 C 10,6 C 97 % 1018,9 hPa 0,0 l/m 0 min 0 min 0,0 UV-I 0 W/m 10,5 km/h (2 Bft)
20.06.2014 01:36 11,7 C 10,6 C 97 % 1018,8 hPa 0,0 l/m 0 min 0 min 0,0 UV-I 0 W/m 6,3 km/h (2 Bft)
20.06.2014 01:38 11,7 C 10,6 C 97 % 1018,8 hPa 0,0 l/m 0 min 0 min 0,0 UV-I 0 W/m 2,1 km/h (1 Bft)
20.06.2014 01:40 11,7 C 10,6 C 97 % 1018,8 hPa 0,0 l/m 0 min 0 min 0,0 UV-I 0 W/m 6,3 km/h (2 Bft)
20.06.2014 01:42 11,8 C 10,6 C 97 % 1018,8 hPa 0,0 l/m 0 min 0 min 0,0 UV-I 0 W/m 6,3 km/h (2 Bft)
20.06.2014 01:44 11,8 C 10,6 C 97 % 1018,8 hPa 0,0 l/m 0 min 0 min 0,0 UV-I 0 W/m 6,3 km/h (2 Bft)
20.06.2014 01:46 11,8 C 10,6 C 97 % 1018,7 hPa 0,0 l/m 0 min 0 min 0,0 UV-I 0 W/m 0,0 km/h (0 Bft)
20.06.2014 01:48 11,8 C 10,6 C 97 % 1018,7 hPa 0,0 l/m 0 min 0 min 0,0 UV-I 0 W/m 4,2 km/h (1 Bft)
20.06.2014 01:50 11,8 C 11,1 C 97 % 1018,7 hPa 0,0 l/m 0 min 0 min 0,0 UV-I 0 W/m 8,4 km/h (2 Bft)
20.06.2014 01:52 11,8 C 11,1 C 97 % 1018,7 hPa 0,0 l/m 0 min 0 min 0,0 UV-I 0 W/m 6,3 km/h (2 Bft)
20.06.2014 01:54 11,8 C 11,1 C 97 % 1018,6 hPa 0,0 l/m 0 min 0 min 0,0 UV-I 0 W/m 10,5 km/h (2 Bft)
20.06.2014 01:56 11,8 C 11,1 C 97 % 1018,7 hPa 0,0 l/m 0 min 0 min 0,0 UV-I 0 W/m 6,3 km/h (2 Bft)
20.06.2014 01:58 11,9 C 11,1 C 97 % 1018,7 hPa 0,0 l/m 0 min 0 min 0,0 UV-I 0 W/m 4,2 km/h (1 Bft)
20.06.2014 02:00 11,9 C 11,1 C 97 % 1018,7 hPa 0,0 l/m 0 min 0 min 0,0 UV-I 0 W/m 12,6 km/h (3 Bft)
20.06.2014 02:02 11,9 C 11,1 C 97 % 1018,6 hPa 0,0 l/m 0 min 0 min 0,0 UV-I 0 W/m 10,5 km/h (2 Bft)
20.06.2014 02:04 11,9 C 11,1 C 97 % 1018,6 hPa 0,0 l/m 0 min 0 min 0,0 UV-I 0 W/m 10,5 km/h (2 Bft)
20.06.2014 02:06 11,9 C 11,1 C 97 % 1018,6 hPa 0,0 l/m 0 min 0 min 0,0 UV-I 0 W/m 8,4 km/h (2 Bft)
20.06.2014 02:08 11,9 C 11,1 C 97 % 1018,6 hPa 0,0 l/m 0 min 0 min 0,0 UV-I 0 W/m 4,2 km/h (1 Bft)
20.06.2014 02:10 12,0 C 11,1 C 97 % 1018,6 hPa 0,0 l/m 0 min 0 min 0,0 UV-I 0 W/m 8,4 km/h (2 Bft)
20.06.2014 02:12 12,0 C 11,1 C 97 % 1018,6 hPa 0,0 l/m 0 min 0 min 0,0 UV-I 0 W/m 10,5 km/h (2 Bft)
20.06.2014 02:14 12,0 C 11,1 C 97 % 1018,6 hPa 0,0 l/m 0 min 0 min 0,0 UV-I 0 W/m 8,4 km/h (2 Bft)
20.06.2014 02:16 12,0 C 11,1 C 97 % 1018,6 hPa 0,0 l/m 0 min 0 min 0,0 UV-I 0 W/m 6,3 km/h (2 Bft)
20.06.2014 02:18 12,0 C 11,1 C 97 % 1018,6 hPa 0,0 l/m 0 min 0 min 0,0 UV-I 0 W/m 6,3 km/h (2 Bft)
20.06.2014 02:20 12,1 C 11,1 C 97 % 1018,7 hPa 0,0 l/m 0 min 0 min 0,0 UV-I 0 W/m 6,3 km/h (2 Bft)
20.06.2014 02:22 12,1 C 11,1 C 97 % 1018,6 hPa 0,0 l/m 0 min 0 min 0,0 UV-I 0 W/m 10,5 km/h (2 Bft)
20.06.2014 02:24 12,1 C 11,1 C 96 % 1018,6 hPa 0,0 l/m 0 min 0 min 0,0 UV-I 0 W/m 8,4 km/h (2 Bft)
20.06.2014 02:26 12,1 C 11,1 C 96 % 1018,5 hPa 0,0 l/m 0 min 0 min 0,0 UV-I 0 W/m 10,5 km/h (2 Bft)
20.06.2014 02:28 12,1 C 11,1 C 96 % 1018,6 hPa 0,0 l/m 0 min 0 min 0,0 UV-I 0 W/m 8,4 km/h (2 Bft)
20.06.2014 02:30 12,1 C 11,1 C 97 % 1018,6 hPa 0,0 l/m 0 min 0 min 0,0 UV-I 0 W/m 12,6 km/h (3 Bft)
20.06.2014 02:32 12,1 C 11,1 C 96 % 1018,6 hPa 0,0 l/m 0 min 0 min 0,0 UV-I 0 W/m 14,6 km/h (3 Bft)
20.06.2014 02:34 12,1 C 11,1 C 96 % 1018,6 hPa 0,0 l/m 0 min 0 min 0,0 UV-I 0 W/m 8,4 km/h (2 Bft)
20.06.2014 02:36 12,1 C 11,1 C 96 % 1018,6 hPa 0,0 l/m 0 min 0 min 0,0 UV-I 0 W/m 10,5 km/h (2 Bft)
20.06.2014 02:38 12,1 C 11,1 C 96 % 1018,6 hPa 0,0 l/m 0 min 0 min 0,0 UV-I 0 W/m 12,6 km/h (3 Bft)
20.06.2014 02:40 12,1 C 11,1 C 96 % 1018,5 hPa 0,0 l/m 0 min 0 min 0,0 UV-I 0 W/m 0,0 km/h (0 Bft)
20.06.2014 02:42 12,1 C 11,1 C 96 % 1018,6 hPa 0,0 l/m 0 min 0 min 0,0 UV-I 0 W/m 0,0 km/h (0 Bft)
20.06.2014 02:44 12,1 C 11,1 C 96 % 1018,6 hPa 0,0 l/m 0 min 0 min 0,0 UV-I 0 W/m 6,3 km/h (2 Bft)
20.06.2014 02:46 12,1 C 11,1 C 96 % 1018,6 hPa 0,0 l/m 0 min 0 min 0,0 UV-I 0 W/m 8,4 km/h (2 Bft)
20.06.2014 02:48 12,1 C 11,1 C 96 % 1018,6 hPa 0,0 l/m 0 min 0 min 0,0 UV-I 0 W/m 12,6 km/h (3 Bft)
20.06.2014 02:50 12,1 C 11,1 C 96 % 1018,5 hPa 0,0 l/m 0 min 0 min 0,0 UV-I 0 W/m 6,3 km/h (2 Bft)
20.06.2014 02:52 12,1 C 11,1 C 96 % 1018,5 hPa 0,0 l/m 0 min 0 min 0,0 UV-I 0 W/m 2,1 km/h (1 Bft)
20.06.2014 02:54 12,1 C 11,1 C 96 % 1018,4 hPa 0,0 l/m 0 min 0 min 0,0 UV-I 0 W/m 8,4 km/h (2 Bft)
20.06.2014 02:56 12,1 C 11,1 C 96 % 1018,4 hPa 0,0 l/m 0 min 0 min 0,0 UV-I 0 W/m 2,1 km/h (1 Bft)
20.06.2014 02:58 12,1 C 11,1 C 96 % 1018,5 hPa 0,0 l/m 0 min 0 min 0,0 UV-I 0 W/m 0,0 km/h (0 Bft)
20.06.2014 03:00 12,1 C 11,1 C 96 % 1018,5 hPa 0,0 l/m 0 min 0 min 0,0 UV-I 0 W/m 14,6 km/h (3 Bft)
20.06.2014 03:02 12,1 C 11,1 C 96 % 1018,5 hPa 0,0 l/m 0 min 0 min 0,0 UV-I 0 W/m 8,4 km/h (2 Bft)
20.06.2014 03:04 12,1 C 11,1 C 96 % 1018,5 hPa 0,0 l/m 0 min 0 min 0,0 UV-I 0 W/m 10,5 km/h (2 Bft)
20.06.2014 03:06 12,1 C 11,1 C 96 % 1018,5 hPa 0,0 l/m 0 min 0 min 0,0 UV-I 0 W/m 8,4 km/h (2 Bft)
20.06.2014 03:08 12,2 C 11,1 C 96 % 1018,4 hPa 0,0 l/m 0 min 0 min 0,0 UV-I 0 W/m 8,4 km/h (2 Bft)
20.06.2014 03:10 12,2 C 11,1 C 96 % 1018,4 hPa 0,0 l/m 0 min 0 min 0,0 UV-I 0 W/m 0,0 km/h (0 Bft)
20.06.2014 03:12 12,2 C 11,1 C 96 % 1018,4 hPa 0,0 l/m 0 min 0 min 0,0 UV-I 0 W/m 12,6 km/h (3 Bft)
20.06.2014 03:14 12,2 C 11,1 C 96 % 1018,4 hPa 0,0 l/m 0 min 0 min 0,0 UV-I 0 W/m 10,5 km/h (2 Bft)
20.06.2014 03:16 12,2 C 11,1 C 96 % 1018,4 hPa 0,0 l/m 0 min 0 min 0,0 UV-I 0 W/m 6,3 km/h (2 Bft)
20.06.2014 03:18 12,2 C 11,1 C 96 % 1018,4 hPa 0,0 l/m 0 min 0 min 0,0 UV-I 0 W/m 12,6 km/h (3 Bft)
20.06.2014 03:20 12,2 C 11,1 C 96 % 1018,3 hPa 0,0 l/m 0 min 0 min 0,0 UV-I 0 W/m 2,1 km/h (1 Bft)
20.06.2014 03:22 12,2 C 11,1 C 96 % 1018,4 hPa 0,0 l/m 0 min 0 min 0,0 UV-I 0 W/m 10,5 km/h (2 Bft)
20.06.2014 03:24 12,2 C 11,1 C 96 % 1018,4 hPa 0,0 l/m 0 min 0 min 0,0 UV-I 0 W/m 10,5 km/h (2 Bft)
20.06.2014 03:26 12,2 C 11,1 C 96 % 1018,4 hPa 0,0 l/m 0 min 0 min 0,0 UV-I 0 W/m 8,4 km/h (2 Bft)
20.06.2014 03:28 12,2 C 11,1 C 96 % 1018,4 hPa 0,0 l/m 0 min 0 min 0,0 UV-I 0 W/m 12,6 km/h (3 Bft)
20.06.2014 03:30 12,2 C 11,7 C 96 % 1018,3 hPa 0,0 l/m 0 min 0 min 0,0 UV-I 0 W/m 8,4 km/h (2 Bft)
20.06.2014 03:32 12,2 C 11,7 C 96 % 1018,4 hPa 0,0 l/m 0 min 0 min 0,0 UV-I 0 W/m 12,6 km/h (3 Bft)
20.06.2014 03:34 12,2 C 11,7 C 96 % 1018,4 hPa 0,0 l/m 0 min 0 min 0,0 UV-I 0 W/m 12,6 km/h (3 Bft)
20.06.2014 03:36 12,2 C 11,7 C 95 % 1018,4 hPa 0,0 l/m 0 min 0 min 0,0 UV-I 0 W/m 8,4 km/h (2 Bft)
20.06.2014 03:38 12,3 C 11,7 C 95 % 1018,4 hPa 0,0 l/m 0 min 0 min 0,0 UV-I 0 W/m 8,4 km/h (2 Bft)
20.06.2014 03:40 12,3 C 11,7 C 95 % 1018,3 hPa 0,0 l/m 0 min 0 min 0,0 UV-I 0 W/m 8,4 km/h (2 Bft)
20.06.2014 03:42 12,3 C 11,7 C 95 % 1018,4 hPa 0,0 l/m 0 min 0 min 0,0 UV-I 0 W/m 6,3 km/h (2 Bft)
20.06.2014 03:44 12,3 C 11,7 C 95 % 1018,4 hPa 0,0 l/m 0 min 0 min 0,0 UV-I 0 W/m 10,5 km/h (2 Bft)
20.06.2014 03:46 12,3 C 11,7 C 95 % 1018,3 hPa 0,0 l/m 0 min 0 min 0,0 UV-I 0 W/m 6,3 km/h (2 Bft)
20.06.2014 03:48 12,3 C 11,7 C 95 % 1018,4 hPa 0,0 l/m 0 min 0 min 0,0 UV-I 0 W/m 10,5 km/h (2 Bft)
20.06.2014 03:50 12,3 C 11,7 C 95 % 1018,3 hPa 0,0 l/m 0 min 0 min 0,0 UV-I 0 W/m 14,6 km/h (3 Bft)
20.06.2014 03:52 12,3 C 11,7 C 95 % 1018,3 hPa 0,0 l/m 0 min 0 min 0,0 UV-I 0 W/m 6,3 km/h (2 Bft)
20.06.2014 03:54 12,3 C 11,7 C 95 % 1018,3 hPa 0,0 l/m 0 min 0 min 0,0 UV-I 0 W/m 6,3 km/h (2 Bft)
20.06.2014 03:56 12,3 C 11,7 C 95 % 1018,3 hPa 0,0 l/m 0 min 0 min 0,0 UV-I 0 W/m 10,5 km/h (2 Bft)
20.06.2014 03:58 12,3 C 11,7 C 95 % 1018,3 hPa 0,0 l/m 0 min 0 min 0,0 UV-I 0 W/m 12,6 km/h (3 Bft)
20.06.2014 04:00 12,3 C 11,7 C 95 % 1018,3 hPa 0,0 l/m 0 min 0 min 0,0 UV-I 0 W/m 14,6 km/h (3 Bft)
20.06.2014 04:05 12,3 C 11,7 C 95 % 1018,5 hPa 0,0 l/m 0 min 0 min 0,0 UV-I 0 W/m 14,6 km/h (3 Bft)
20.06.2014 04:06 12,3 C 11,7 C 95 % 1018,5 hPa 0,0 l/m 0 min 0 min 0,0 UV-I 0 W/m 6,3 km/h (2 Bft)
20.06.2014 04:08 12,4 C 11,7 C 95 % 1018,3 hPa 0,0 l/m 0 min 0 min 0,0 UV-I 0 W/m 12,6 km/h (3 Bft)
20.06.2014 04:10 12,3 C 11,7 C 95 % 1018,3 hPa 0,0 l/m 0 min 0 min 0,0 UV-I 0 W/m 10,5 km/h (2 Bft)
20.06.2014 04:12 12,3 C 11,7 C 95 % 1018,3 hPa 0,0 l/m 0 min 0 min 0,0 UV-I 0 W/m 10,5 km/h (2 Bft)
20.06.2014 04:14 12,4 C 11,7 C 94 % 1018,3 hPa 0,0 l/m 0 min 0 min 0,0 UV-I 0 W/m 18,8 km/h (3 Bft)
20.06.2014 04:16 12,4 C 11,7 C 94 % 1018,3 hPa 0,0 l/m 0 min 0 min 0,0 UV-I 0 W/m 12,6 km/h (3 Bft)
20.06.2014 04:18 12,4 C 11,7 C 94 % 1018,4 hPa 0,0 l/m 0 min 0 min 0,0 UV-I 0 W/m 12,6 km/h (3 Bft)
20.06.2014 04:20 12,4 C 11,7 C 94 % 1018,4 hPa 0,0 l/m 0 min 0 min 0,0 UV-I 0 W/m 12,6 km/h (3 Bft)
20.06.2014 04:22 12,4 C 11,7 C 94 % 1018,4 hPa 0,0 l/m 0 min 0 min 0,0 UV-I 0 W/m 8,4 km/h (2 Bft)
20.06.2014 04:24 12,4 C 11,7 C 94 % 1018,4 hPa 0,0 l/m 0 min 0 min 0,0 UV-I 0 W/m 14,6 km/h (3 Bft)
20.06.2014 04:26 12,4 C 11,7 C 94 % 1018,4 hPa 0,0 l/m 0 min 0 min 0,0 UV-I 0 W/m 10,5 km/h (2 Bft)
20.06.2014 04:28 12,4 C 11,7 C 94 % 1018,4 hPa 0,0 l/m 0 min 0 min 0,0 UV-I 0 W/m 12,6 km/h (3 Bft)
20.06.2014 04:30 12,4 C 11,7 C 94 % 1018,3 hPa 0,0 l/m 0 min 0 min 0,0 UV-I 0 W/m 10,5 km/h (2 Bft)
20.06.2014 04:32 12,4 C 11,7 C 94 % 1018,3 hPa 0,0 l/m 0 min 0 min 0,0 UV-I 0 W/m 4,2 km/h (1 Bft)
20.06.2014 04:34 12,4 C 11,7 C 94 % 1018,3 hPa 0,0 l/m 0 min 0 min 0,0 UV-I 0 W/m 4,2 km/h (1 Bft)
20.06.2014 04:36 12,4 C 11,7 C 94 % 1018,3 hPa 0,0 l/m 0 min 0 min 0,0 UV-I 0 W/m 6,3 km/h (2 Bft)
20.06.2014 04:38 12,4 C 11,7 C 94 % 1018,3 hPa 0,0 l/m 0 min 0 min 0,0 UV-I 0 W/m 14,6 km/h (3 Bft)
20.06.2014 04:40 12,3 C 11,7 C 94 % 1018,3 hPa 0,0 l/m 0 min 0 min 0,0 UV-I 0 W/m 10,5 km/h (2 Bft)
20.06.2014 04:42 12,3 C 11,7 C 94 % 1018,3 hPa 0,0 l/m 0 min 0 min 0,0 UV-I 0 W/m 12,6 km/h (3 Bft)
20.06.2014 04:44 12,3 C 11,1 C 93 % 1018,3 hPa 0,0 l/m 0 min 0 min 0,0 UV-I 0 W/m 16,7 km/h (3 Bft)
20.06.2014 04:46 12,3 C 11,1 C 93 % 1018,3 hPa 0,0 l/m 0 min 0 min 0,0 UV-I 0 W/m 16,7 km/h (3 Bft)
20.06.2014 04:48 12,3 C 11,1 C 93 % 1018,3 hPa 0,0 l/m 0 min 0 min 0,0 UV-I 0 W/m 12,6 km/h (3 Bft)
20.06.2014 04:50 12,3 C 11,1 C 93 % 1018,4 hPa 0,0 l/m 0 min 0 min 0,0 UV-I 0 W/m 14,6 km/h (3 Bft)
20.06.2014 04:52 12,3 C 11,1 C 93 % 1018,4 hPa 0,0 l/m 0 min 0 min 0,0 UV-I 0 W/m 14,6 km/h (3 Bft)
20.06.2014 04:54 12,3 C 11,1 C 93 % 1018,4 hPa 0,0 l/m 0 min 0 min 0,0 UV-I 0 W/m 12,6 km/h (3 Bft)
20.06.2014 04:56 12,3 C 11,1 C 93 % 1018,4 hPa 0,0 l/m 0 min 0 min 0,0 UV-I 0 W/m 12,6 km/h (3 Bft)
20.06.2014 04:58 12,3 C 11,1 C 93 % 1018,4 hPa 0,0 l/m 0 min 0 min 0,0 UV-I 0 W/m 10,5 km/h (2 Bft)
20.06.2014 05:00 12,3 C 11,1 C 93 % 1018,4 hPa 0,0 l/m 0 min 0 min 0,0 UV-I 0 W/m 12,6 km/h (3 Bft)
20.06.2014 05:02 12,3 C 11,1 C 93 % 1018,4 hPa 0,0 l/m 0 min 0 min 0,0 UV-I 0 W/m 12,6 km/h (3 Bft)
20.06.2014 05:04 12,2 C 11,1 C 93 % 1018,4 hPa 0,0 l/m 0 min 0 min 0,0 UV-I 0 W/m 14,6 km/h (3 Bft)
20.06.2014 05:06 12,2 C 11,1 C 93 % 1018,4 hPa 0,0 l/m 0 min 0 min 0,0 UV-I 0 W/m 8,4 km/h (2 Bft)
20.06.2014 05:08 12,2 C 11,1 C 93 % 1018,4 hPa 0,0 l/m 0 min 0 min 0,0 UV-I 0 W/m 10,5 km/h (2 Bft)
20.06.2014 05:10 12,2 C 11,1 C 93 % 1018,3 hPa 0,0 l/m 0 min 0 min 0,0 UV-I 0 W/m 8,4 km/h (2 Bft)
20.06.2014 05:12 12,2 C 11,1 C 93 % 1018,3 hPa 0,0 l/m 0 min 0 min 0,0 UV-I 0 W/m 12,6 km/h (3 Bft)
20.06.2014 05:14 12,2 C 11,1 C 93 % 1018,3 hPa 0,0 l/m 0 min 0 min 0,0 UV-I 0 W/m 8,4 km/h (2 Bft)
20.06.2014 05:16 12,2 C 11,1 C 92 % 1018,3 hPa 0,0 l/m 0 min 0 min 0,0 UV-I 0 W/m 14,6 km/h (3 Bft)
20.06.2014 05:18 12,2 C 11,1 C 92 % 1018,3 hPa 0,0 l/m 0 min 0 min 0,0 UV-I 0 W/m 8,4 km/h (2 Bft)
20.06.2014 05:20 12,2 C 11,1 C 93 % 1018,3 hPa 0,0 l/m 0 min 0 min 0,0 UV-I 0 W/m 14,6 km/h (3 Bft)
20.06.2014 05:22 12,2 C 11,1 C 93 % 1018,4 hPa 0,0 l/m 0 min 0 min 0,0 UV-I 0 W/m 12,6 km/h (3 Bft)
20.06.2014 05:24 12,2 C 11,1 C 92 % 1018,3 hPa 0,0 l/m 0 min 0 min 0,0 UV-I 0 W/m 10,5 km/h (2 Bft)
20.06.2014 05:26 12,2 C 11,1 C 92 % 1018,3 hPa 0,0 l/m 0 min 0 min 0,0 UV-I 0 W/m 8,4 km/h (2 Bft)
20.06.2014 05:28 12,2 C 11,1 C 92 % 1018,3 hPa 0,0 l/m 0 min 0 min 0,0 UV-I 0 W/m 10,5 km/h (2 Bft)
20.06.2014 05:30 12,2 C 11,1 C 92 % 1018,3 hPa 0,0 l/m 0 min 0 min 0,0 UV-I 0 W/m 14,6 km/h (3 Bft)
20.06.2014 05:32 12,2 C 11,1 C 92 % 1018,3 hPa 0,0 l/m 0 min 0 min 0,0 UV-I 0 W/m 4,2 km/h (1 Bft)
20.06.2014 05:34 12,2 C 11,1 C 93 % 1018,3 hPa 0,0 l/m 0 min 0 min 0,0 UV-I 0 W/m 6,3 km/h (2 Bft)
20.06.2014 05:36 12,2 C 11,1 C 93 % 1018,3 hPa 0,0 l/m 0 min 0 min 0,0 UV-I 0 W/m 8,4 km/h (2 Bft)
20.06.2014 05:38 12,2 C 11,1 C 93 % 1018,3 hPa 0,0 l/m 0 min 0 min 0,0 UV-I 0 W/m 12,6 km/h (3 Bft)
20.06.2014 05:40 12,2 C 11,1 C 93 % 1018,4 hPa 0,0 l/m 0 min 0 min 0,0 UV-I 0 W/m 16,7 km/h (3 Bft)
20.06.2014 05:42 12,2 C 11,1 C 93 % 1018,4 hPa 0,0 l/m 0 min 2 min 0,0 UV-I 0 W/m 18,8 km/h (3 Bft)
20.06.2014 05:44 12,2 C 11,1 C 93 % 1018,4 hPa 0,2 l/m 0 min 2 min 0,0 UV-I 0 W/m 16,7 km/h (3 Bft)
20.06.2014 05:46 12,2 C 10,6 C 93 % 1018,4 hPa 0,0 l/m 0 min 2 min 0,0 UV-I 6 W/m 14,6 km/h (3 Bft)
20.06.2014 05:48 12,2 C 10,6 C 93 % 1018,4 hPa 0,0 l/m 0 min 2 min 0,0 UV-I 8 W/m 12,6 km/h (3 Bft)
20.06.2014 05:50 12,1 C 10,6 C 93 % 1018,4 hPa 0,2 l/m 0 min 2 min 0,0 UV-I 8 W/m 12,6 km/h (3 Bft)
20.06.2014 05:52 12,0 C 10,6 C 94 % 1018,4 hPa 0,0 l/m 0 min 0 min 0,0 UV-I 6 W/m 12,6 km/h (3 Bft)
20.06.2014 05:54 11,9 C 10,6 C 94 % 1018,4 hPa 0,0 l/m 0 min 0 min 0,0 UV-I 8 W/m 12,6 km/h (3 Bft)
20.06.2014 05:56 11,9 C 10,6 C 94 % 1018,3 hPa 0,0 l/m 0 min 0 min 0,0 UV-I 13 W/m 12,6 km/h (3 Bft)
20.06.2014 05:58 11,9 C 10,6 C 94 % 1018,4 hPa 0,0 l/m 0 min 0 min 0,0 UV-I 14 W/m 12,6 km/h (3 Bft)
20.06.2014 06:00 11,9 C 10,6 C 94 % 1018,5 hPa 0,0 l/m 0 min 0 min 0,0 UV-I 13 W/m 12,6 km/h (3 Bft)
20.06.2014 06:02 11,9 C 10,6 C 94 % 1018,4 hPa 0,0 l/m 0 min 0 min 0,0 UV-I 13 W/m 10,5 km/h (2 Bft)
20.06.2014 06:06 11,9 C 10,6 C 95 % 1018,4 hPa 0,0 l/m 0 min 2 min 0,0 UV-I 16 W/m 6,3 km/h (2 Bft)
20.06.2014 06:08 11,9 C 10,6 C 95 % 1018,4 hPa 0,0 l/m 0 min 0 min 0,0 UV-I 18 W/m 0,0 km/h (0 Bft)
20.06.2014 06:10 11,9 C 10,6 C 95 % 1018,4 hPa 0,0 l/m 0 min 0 min 0,0 UV-I 14 W/m 0,0 km/h (0 Bft)
20.06.2014 06:12 11,9 C 10,6 C 95 % 1018,4 hPa 0,0 l/m 0 min 0 min 0,0 UV-I 13 W/m 0,0 km/h (0 Bft)
20.06.2014 06:14 11,9 C 10,6 C 95 % 1018,3 hPa 0,0 l/m 0 min 2 min 0,0 UV-I 14 W/m 0,0 km/h (0 Bft)
20.06.2014 06:16 11,9 C 10,6 C 95 % 1018,3 hPa 0,0 l/m 0 min 2 min 0,0 UV-I 14 W/m 6,3 km/h (2 Bft)
20.06.2014 06:18 11,8 C 10,6 C 95 % 1018,4 hPa 0,0 l/m 0 min 0 min 0,0 UV-I 13 W/m 0,0 km/h (0 Bft)
20.06.2014 06:20 11,8 C 10,6 C 95 % 1018,4 hPa 0,0 l/m 0 min 2 min 0,0 UV-I 14 W/m 4,2 km/h (1 Bft)
20.06.2014 06:22 11,8 C 10,6 C 95 % 1018,4 hPa 0,0 l/m 0 min 2 min 0,0 UV-I 13 W/m 2,1 km/h (1 Bft)
20.06.2014 06:24 11,8 C 10,6 C 96 % 1018,3 hPa 0,0 l/m 0 min 2 min 0,0 UV-I 13 W/m 0,0 km/h (0 Bft)
20.06.2014 06:26 11,8 C 10,6 C 96 % 1018,4 hPa 0,0 l/m 0 min 2 min 0,0 UV-I 10 W/m 2,1 km/h (1 Bft)
20.06.2014 06:28 11,8 C 10,6 C 96 % 1018,4 hPa 0,0 l/m 0 min 2 min 0,0 UV-I 8 W/m 0,0 km/h (0 Bft)
20.06.2014 06:30 11,8 C 10,6 C 96 % 1018,4 hPa 0,2 l/m 0 min 2 min 0,0 UV-I 8 W/m 0,0 km/h (0 Bft)
20.06.2014 06:32 11,9 C 10,6 C 96 % 1018,4 hPa 0,2 l/m 0 min 2 min 0,0 UV-I 8 W/m 6,3 km/h (2 Bft)
20.06.2014 06:34 11,9 C 10,6 C 96 % 1018,4 hPa 0,2 l/m 0 min 2 min 0,0 UV-I 8 W/m 10,5 km/h (2 Bft)
20.06.2014 06:36 11,9 C 10,6 C 96 % 1018,4 hPa 0,2 l/m 0 min 2 min 0,0 UV-I 10 W/m 10,5 km/h (2 Bft)
20.06.2014 06:38 11,9 C 10,6 C 96 % 1018,4 hPa 0,4 l/m 0 min 2 min 0,0 UV-I 18 W/m 8,4 km/h (2 Bft)
20.06.2014 06:40 11,9 C 11,1 C 96 % 1018,3 hPa 0,2 l/m 0 min 2 min 0,0 UV-I 21 W/m 2,1 km/h (1 Bft)
20.06.2014 06:42 11,8 C 10,6 C 96 % 1018,3 hPa 0,0 l/m 0 min 2 min 0,0 UV-I 22 W/m 0,0 km/h (0 Bft)
20.06.2014 06:44 11,8 C 10,6 C 96 % 1018,4 hPa 0,0 l/m 0 min 2 min 0,0 UV-I 21 W/m 0,0 km/h (0 Bft)
20.06.2014 06:46 11,8 C 10,6 C 96 % 1018,3 hPa 0,0 l/m 0 min 0 min 0,0 UV-I 22 W/m 0,0 km/h (0 Bft)
20.06.2014 06:48 11,8 C 10,6 C 97 % 1018,3 hPa 0,0 l/m 0 min 0 min 0,0 UV-I 24 W/m 0,0 km/h (0 Bft)
20.06.2014 06:50 11,8 C 10,6 C 97 % 1018,3 hPa 0,0 l/m 0 min 0 min 0,0 UV-I 16 W/m 0,0 km/h (0 Bft)
20.06.2014 06:52 11,8 C 10,6 C 97 % 1018,3 hPa 0,0 l/m 0 min 0 min 0,0 UV-I 21 W/m 0,0 km/h (0 Bft)
20.06.2014 06:54 11,9 C 10,6 C 97 % 1018,4 hPa 0,0 l/m 0 min 0 min 0,0 UV-I 22 W/m 0,0 km/h (0 Bft)
20.06.2014 06:56 11,9 C 11,1 C 97 % 1018,4 hPa 0,0 l/m 0 min 0 min 0,0 UV-I 34 W/m 0,0 km/h (0 Bft)
20.06.2014 06:58 11,9 C 11,1 C 97 % 1018,3 hPa 0,0 l/m 0 min 0 min 0,0 UV-I 43 W/m 0,0 km/h (0 Bft)
20.06.2014 07:00 11,9 C 11,1 C 97 % 1018,3 hPa 0,0 l/m 0 min 0 min 0,0 UV-I 53 W/m 0,0 km/h (0 Bft)
20.06.2014 07:02 11,8 C 11,1 C 97 % 1018,4 hPa 0,0 l/m 0 min 0 min 0,0 UV-I 56 W/m 0,0 km/h (0 Bft)
20.06.2014 07:04 11,9 C 11,1 C 97 % 1018,4 hPa 0,0 l/m 0 min 0 min 0,0 UV-I 53 W/m 0,0 km/h (0 Bft)
20.06.2014 07:06 12,0 C 11,1 C 97 % 1018,4 hPa 0,0 l/m 0 min 0 min 0,0 UV-I 53 W/m 0,0 km/h (0 Bft)
20.06.2014 07:08 12,0 C 11,1 C 97 % 1018,5 hPa 0,0 l/m 0 min 0 min 0,0 UV-I 56 W/m 0,0 km/h (0 Bft)
20.06.2014 07:10 12,1 C 11,1 C 97 % 1018,5 hPa 0,0 l/m 0 min 0 min 0,0 UV-I 61 W/m 0,0 km/h (0 Bft)
20.06.2014 07:12 12,1 C 11,7 C 97 % 1018,5 hPa 0,0 l/m 0 min 0 min 0,0 UV-I 64 W/m 0,0 km/h (0 Bft)
20.06.2014 07:14 12,0 C 11,1 C 97 % 1018,5 hPa 0,0 l/m 0 min 0 min 0,0 UV-I 69 W/m 0,0 km/h (0 Bft)
20.06.2014 07:16 12,1 C 11,7 C 97 % 1018,5 hPa 0,0 l/m 0 min 0 min 0,0 UV-I 72 W/m 0,0 km/h (0 Bft)
20.06.2014 07:18 12,2 C 11,7 C 97 % 1018,5 hPa 0,0 l/m 0 min 0 min 0,0 UV-I 75 W/m 0,0 km/h (0 Bft)
20.06.2014 07:20 12,2 C 11,7 C 97 % 1018,5 hPa 0,0 l/m 0 min 0 min 0,0 UV-I 75 W/m 0,0 km/h (0 Bft)
20.06.2014 07:22 12,2 C 11,7 C 97 % 1018,5 hPa 0,0 l/m 0 min 0 min 0,0 UV-I 75 W/m 0,0 km/h (0 Bft)
20.06.2014 07:24 12,3 C 11,7 C 98 % 1018,5 hPa 0,0 l/m 0 min 0 min 0,0 UV-I 79 W/m 0,0 km/h (0 Bft)
20.06.2014 07:26 12,3 C 11,7 C 98 % 1018,5 hPa 0,0 l/m 0 min 0 min 0,0 UV-I 77 W/m 0,0 km/h (0 Bft)
20.06.2014 07:28 12,3 C 11,7 C 98 % 1018,6 hPa 0,0 l/m 0 min 0 min 0,0 UV-I 77 W/m 2,1 km/h (1 Bft)
20.06.2014 07:30 12,3 C 11,7 C 98 % 1018,5 hPa 0,0 l/m 0 min 0 min 0,0 UV-I 79 W/m 0,0 km/h (0 Bft)
20.06.2014 07:32 12,2 C 11,7 C 98 % 1018,5 hPa 0,0 l/m 0 min 0 min 0,0 UV-I 75 W/m 0,0 km/h (0 Bft)
20.06.2014 07:34 12,3 C 11,7 C 98 % 1018,5 hPa 0,0 l/m 0 min 0 min 0,0 UV-I 75 W/m 0,0 km/h (0 Bft)
20.06.2014 07:36 12,3 C 11,7 C 98 % 1018,4 hPa 0,0 l/m 0 min 0 min 0,0 UV-I 80 W/m 0,0 km/h (0 Bft)
20.06.2014 07:38 12,4 C 11,7 C 98 % 1018,5 hPa 0,0 l/m 0 min 0 min 0,0 UV-I 85 W/m 2,1 km/h (1 Bft)
20.06.2014 07:40 12,2 C 11,7 C 98 % 1018,5 hPa 0,0 l/m 0 min 0 min 0,0 UV-I 91 W/m 6,3 km/h (2 Bft)
20.06.2014 07:42 12,3 C 11,7 C 98 % 1018,5 hPa 0,0 l/m 0 min 0 min 0,0 UV-I 95 W/m 2,1 km/h (1 Bft)
20.06.2014 07:44 12,3 C 11,7 C 98 % 1018,4 hPa 0,0 l/m 0 min 0 min 0,0 UV-I 95 W/m 2,1 km/h (1 Bft)
20.06.2014 07:46 12,4 C 11,7 C 98 % 1018,4 hPa 0,0 l/m 0 min 0 min 0,0 UV-I 97 W/m 0,0 km/h (0 Bft)
20.06.2014 07:48 12,4 C 11,7 C 98 % 1018,5 hPa 0,0 l/m 0 min 0 min 0,0 UV-I 99 W/m 2,1 km/h (1 Bft)
20.06.2014 07:50 12,4 C 11,7 C 98 % 1018,5 hPa 0,0 l/m 0 min 0 min 0,0 UV-I 112 W/m 2,1 km/h (1 Bft)
20.06.2014 07:52 12,5 C 11,7 C 98 % 1018,6 hPa 0,0 l/m 0 min 0 min 0,0 UV-I 113 W/m 0,0 km/h (0 Bft)
20.06.2014 07:54 12,6 C 12,2 C 98 % 1018,5 hPa 0,0 l/m 0 min 0 min 0,0 UV-I 120 W/m 0,0 km/h (0 Bft)
20.06.2014 07:56 12,6 C 12,2 C 98 % 1018,6 hPa 0,0 l/m 0 min 0 min 0,0 UV-I 117 W/m 0,0 km/h (0 Bft)
20.06.2014 07:58 12,7 C 12,2 C 98 % 1018,6 hPa 0,0 l/m 0 min 0 min 0,0 UV-I 117 W/m 0,0 km/h (0 Bft)
20.06.2014 08:00 12,7 C 12,2 C 98 % 1018,6 hPa 0,0 l/m 0 min 0 min 0,0 UV-I 128 W/m 8,4 km/h (2 Bft)
20.06.2014 08:02 12,8 C 12,2 C 98 % 1018,6 hPa 0,0 l/m 0 min 0 min 0,0 UV-I 133 W/m 0,0 km/h (0 Bft)
20.06.2014 08:04 12,9 C 12,2 C 98 % 1018,7 hPa 0,0 l/m 0 min 0 min 0,0 UV-I 136 W/m 0,0 km/h (0 Bft)
20.06.2014 08:06 12,9 C 12,8 C 98 % 1018,6 hPa 0,0 l/m 0 min 0 min 0,0 UV-I 138 W/m 4,2 km/h (1 Bft)
20.06.2014 08:08 12,9 C 12,2 C 98 % 1018,7 hPa 0,0 l/m 0 min 0 min 0,0 UV-I 130 W/m 6,3 km/h (2 Bft)
20.06.2014 08:10 12,9 C 12,2 C 98 % 1018,7 hPa 0,0 l/m 0 min 0 min 0,0 UV-I 125 W/m 8,4 km/h (2 Bft)
20.06.2014 08:12 12,9 C 12,2 C 98 % 1018,7 hPa 0,0 l/m 0 min 0 min 0,0 UV-I 139 W/m 8,4 km/h (2 Bft)
20.06.2014 08:14 12,9 C 12,2 C 98 % 1018,6 hPa 0,0 l/m 0 min 0 min 0,0 UV-I 150 W/m 8,4 km/h (2 Bft)
20.06.2014 08:16 12,9 C 12,2 C 98 % 1018,6 hPa 0,0 l/m 0 min 0 min 0,0 UV-I 150 W/m 8,4 km/h (2 Bft)
20.06.2014 08:18 12,9 C 12,2 C 98 % 1018,7 hPa 0,0 l/m 0 min 0 min 0,0 UV-I 123 W/m 10,5 km/h (2 Bft)
20.06.2014 08:20 12,9 C 12,2 C 98 % 1018,7 hPa 0,0 l/m 0 min 0 min 0,0 UV-I 120 W/m 2,1 km/h (1 Bft)
20.06.2014 08:22 13,1 C 12,2 C 98 % 1018,7 hPa 0,0 l/m 0 min 0 min 0,0 UV-I 128 W/m 0,0 km/h (0 Bft)
20.06.2014 08:24 13,2 C 12,8 C 98 % 1018,7 hPa 0,0 l/m 0 min 0 min 0,0 UV-I 133 W/m 8,4 km/h (2 Bft)
20.06.2014 08:26 13,1 C 12,2 C 98 % 1018,7 hPa 0,0 l/m 0 min 0 min 0,0 UV-I 139 W/m 10,5 km/h (2 Bft)
20.06.2014 08:28 13,1 C 12,8 C 98 % 1018,8 hPa 0,0 l/m 0 min 0 min 0,0 UV-I 150 W/m 6,3 km/h (2 Bft)
20.06.2014 08:30 13,2 C 12,8 C 98 % 1018,8 hPa 0,0 l/m 0 min 0 min 0,0 UV-I 174 W/m 12,6 km/h (3 Bft)
20.06.2014 08:32 13,1 C 12,8 C 98 % 1018,9 hPa 0,0 l/m 0 min 0 min 0,0 UV-I 187 W/m 16,7 km/h (3 Bft)
20.06.2014 08:34 13,2 C 12,8 C 97 % 1018,8 hPa 0,0 l/m 0 min 0 min 0,0 UV-I 179 W/m 10,5 km/h (2 Bft)
20.06.2014 08:36 13,2 C 12,8 C 97 % 1018,8 hPa 0,0 l/m 0 min 0 min 0,0 UV-I 160 W/m 10,5 km/h (2 Bft)
20.06.2014 08:38 13,2 C 12,8 C 97 % 1018,8 hPa 0,0 l/m 0 min 0 min 0,0 UV-I 150 W/m 10,5 km/h (2 Bft)
20.06.2014 08:40 13,2 C 12,8 C 97 % 1018,8 hPa 0,0 l/m 0 min 0 min 0,0 UV-I 147 W/m 12,6 km/h (3 Bft)
20.06.2014 08:42 13,3 C 12,8 C 97 % 1018,8 hPa 0,0 l/m 0 min 0 min 0,0 UV-I 133 W/m 6,3 km/h (2 Bft)
20.06.2014 08:44 13,4 C 12,8 C 97 % 1018,8 hPa 0,0 l/m 0 min 0 min 0,0 UV-I 136 W/m 6,3 km/h (2 Bft)
20.06.2014 08:46 13,3 C 12,8 C 96 % 1018,8 hPa 0,0 l/m 0 min 0 min 0,0 UV-I 141 W/m 16,7 km/h (3 Bft)
20.06.2014 08:48 13,3 C 12,8 C 96 % 1018,9 hPa 0,0 l/m 0 min 0 min 0,0 UV-I 150 W/m 14,6 km/h (3 Bft)
20.06.2014 08:50 13,3 C 12,8 C 96 % 1018,8 hPa 0,0 l/m 0 min 0 min 0,0 UV-I 141 W/m 12,6 km/h (3 Bft)
20.06.2014 08:52 13,2 C 12,2 C 95 % 1018,9 hPa 0,0 l/m 0 min 0 min 0,0 UV-I 121 W/m 23,0 km/h (4 Bft)
20.06.2014 08:54 13,1 C 12,2 C 95 % 1019,0 hPa 0,0 l/m 0 min 0 min 0,0 UV-I 121 W/m 14,6 km/h (3 Bft)
20.06.2014 08:56 13,1 C 12,2 C 94 % 1018,9 hPa 0,0 l/m 0 min 0 min 0,0 UV-I 125 W/m 16,7 km/h (3 Bft)
20.06.2014 08:58 13,0 C 12,2 C 94 % 1018,8 hPa 0,0 l/m 0 min 0 min 0,0 UV-I 133 W/m 14,6 km/h (3 Bft)
20.06.2014 09:00 13,1 C 12,2 C 93 % 1018,9 hPa 0,0 l/m 0 min 0 min 0,0 UV-I 144 W/m 10,5 km/h (2 Bft)
20.06.2014 09:02 13,1 C 12,2 C 93 % 1018,8 hPa 0,0 l/m 0 min 0 min 0,0 UV-I 163 W/m 16,7 km/h (3 Bft)
20.06.2014 09:04 13,1 C 12,2 C 93 % 1018,8 hPa 0,0 l/m 0 min 0 min 0,0 UV-I 198 W/m 20,9 km/h (4 Bft)
20.06.2014 09:06 13,1 C 12,2 C 93 % 1018,9 hPa 0,0 l/m 0 min 0 min 0,0 UV-I 235 W/m 20,9 km/h (4 Bft)
20.06.2014 09:08 13,2 C 12,8 C 93 % 1018,9 hPa 0,0 l/m 0 min 0 min 0,0 UV-I 240 W/m 8,4 km/h (2 Bft)
20.06.2014 09:10 13,4 C 12,8 C 93 % 1018,9 hPa 0,0 l/m 0 min 0 min 0,0 UV-I 206 W/m 8,4 km/h (2 Bft)
20.06.2014 09:12 13,5 C 12,8 C 93 % 1018,9 hPa 0,0 l/m 0 min 0 min 0,0 UV-I 182 W/m 10,5 km/h (2 Bft)
20.06.2014 09:14 13,4 C 12,8 C 92 % 1018,9 hPa 0,0 l/m 0 min 0 min 0,0 UV-I 178 W/m 12,6 km/h (3 Bft)
20.06.2014 09:16 13,5 C 12,8 C 92 % 1018,9 hPa 0,0 l/m 0 min 0 min 0,0 UV-I 197 W/m 6,3 km/h (2 Bft)
20.06.2014 09:18 13,5 C 12,8 C 92 % 1018,9 hPa 0,0 l/m 0 min 0 min 0,0 UV-I 222 W/m 12,6 km/h (3 Bft)
20.06.2014 09:20 13,6 C 12,8 C 92 % 1018,9 hPa 0,0 l/m 0 min 0 min 0,0 UV-I 248 W/m 8,4 km/h (2 Bft)
20.06.2014 09:22 13,6 C 12,8 C 92 % 1018,9 hPa 0,0 l/m 0 min 0 min 0,0 UV-I 299 W/m 16,7 km/h (3 Bft)
20.06.2014 09:24 13,7 C 12,8 C 91 % 1018,8 hPa 0,0 l/m 2 min 0 min 0,5 UV-I 336 W/m 12,6 km/h (3 Bft)
20.06.2014 09:26 13,8 C 13,3 C 91 % 1018,9 hPa 0,0 l/m 2 min 0 min 0,6 UV-I 360 W/m 10,5 km/h (2 Bft)
20.06.2014 09:28 13,9 C 13,3 C 91 % 1018,8 hPa 0,0 l/m 0 min 0 min 0,0 UV-I 305 W/m 16,7 km/h (3 Bft)
20.06.2014 09:30 14,0 C 13,3 C 91 % 1018,9 hPa 0,0 l/m 0 min 0 min 0,0 UV-I 269 W/m 16,7 km/h (3 Bft)
20.06.2014 09:32 14,2 C 13,3 C 91 % 1019,0 hPa 0,0 l/m 0 min 0 min 0,0 UV-I 246 W/m 16,7 km/h (3 Bft)
20.06.2014 09:34 14,1 C 13,3 C 90 % 1018,9 hPa 0,0 l/m 0 min 0 min 0,0 UV-I 235 W/m 12,6 km/h (3 Bft)
20.06.2014 09:36 14,1 C 13,3 C 89 % 1018,9 hPa 0,0 l/m 0 min 0 min 0,0 UV-I 238 W/m 16,7 km/h (3 Bft)
20.06.2014 09:38 14,1 C 13,3 C 90 % 1018,9 hPa 0,0 l/m 0 min 0 min 0,0 UV-I 240 W/m 14,6 km/h (3 Bft)
20.06.2014 09:40 14,1 C 13,3 C 89 % 1018,9 hPa 0,0 l/m 0 min 0 min 0,0 UV-I 251 W/m 2,1 km/h (1 Bft)
20.06.2014 09:42 14,1 C 13,3 C 89 % 1018,9 hPa 0,0 l/m 0 min 0 min 0,0 UV-I 275 W/m 18,8 km/h (3 Bft)
20.06.2014 09:44 14,2 C 13,3 C 89 % 1019,0 hPa 0,0 l/m 0 min 0 min 0,5 UV-I 288 W/m 12,6 km/h (3 Bft)
20.06.2014 09:46 14,2 C 13,3 C 88 % 1019,0 hPa 0,0 l/m 0 min 0 min 0,5 UV-I 301 W/m 16,7 km/h (3 Bft)
20.06.2014 09:48 14,2 C 13,3 C 88 % 1019,0 hPa 0,0 l/m 0 min 0 min 0,5 UV-I 299 W/m 18,8 km/h (3 Bft)
20.06.2014 09:50 14,2 C 13,3 C 88 % 1018,9 hPa 0,0 l/m 0 min 0 min 0,5 UV-I 288 W/m 18,8 km/h (3 Bft)
20.06.2014 09:52 14,2 C 13,3 C 87 % 1018,9 hPa 0,0 l/m 0 min 0 min 0,5 UV-I 285 W/m 12,6 km/h (3 Bft)
20.06.2014 09:54 14,2 C 13,3 C 87 % 1018,9 hPa 0,0 l/m 0 min 0 min 0,6 UV-I 297 W/m 10,5 km/h (2 Bft)
20.06.2014 09:56 14,3 C 13,3 C 87 % 1018,9 hPa 0,0 l/m 0 min 0 min 0,6 UV-I 312 W/m 18,8 km/h (3 Bft)
20.06.2014 09:58 14,3 C 13,3 C 86 % 1018,9 hPa 0,0 l/m 0 min 0 min 0,7 UV-I 328 W/m 23,0 km/h (4 Bft)
20.06.2014 10:00 14,3 C 13,3 C 85 % 1018,9 hPa 0,0 l/m 0 min 0 min 0,8 UV-I 330 W/m 20,9 km/h (4 Bft)
20.06.2014 10:02 14,4 C 13,3 C 86 % 1018,9 hPa 0,0 l/m 0 min 0 min 0,8 UV-I 338 W/m 27,2 km/h (4 Bft)
20.06.2014 10:04 14,4 C 13,9 C 85 % 1018,9 hPa 0,0 l/m 0 min 0 min 0,8 UV-I 346 W/m 18,8 km/h (3 Bft)
20.06.2014 10:06 14,6 C 13,9 C 86 % 1018,9 hPa 0,0 l/m 2 min 0 min 0,9 UV-I 358 W/m 20,9 km/h (4 Bft)
20.06.2014 10:08 14,5 C 13,9 C 85 % 1018,9 hPa 0,0 l/m 2 min 0 min 1,0 UV-I 380 W/m 16,7 km/h (3 Bft)
20.06.2014 10:10 14,6 C 13,9 C 85 % 1018,9 hPa 0,0 l/m 2 min 0 min 0,9 UV-I 362 W/m 23,0 km/h (4 Bft)
20.06.2014 10:12 14,6 C 13,9 C 85 % 1018,9 hPa 0,0 l/m 0 min 0 min 0,8 UV-I 334 W/m 18,8 km/h (3 Bft)
20.06.2014 10:14 14,7 C 13,9 C 85 % 1018,9 hPa 0,0 l/m 2 min 0 min 1,0 UV-I 384 W/m 20,9 km/h (4 Bft)
20.06.2014 10:16 14,7 C 13,9 C 85 % 1018,9 hPa 0,0 l/m 2 min 0 min 1,1 UV-I 400 W/m 20,9 km/h (4 Bft)
20.06.2014 10:18 14,8 C 13,9 C 85 % 1019,0 hPa 0,0 l/m 2 min 0 min 0,8 UV-I 386 W/m 27,2 km/h (4 Bft)
20.06.2014 10:20 14,8 C 13,9 C 84 % 1019,0 hPa 0,0 l/m 0 min 0 min 0,8 UV-I 363 W/m 18,8 km/h (3 Bft)
20.06.2014 10:22 14,8 C 13,9 C 84 % 1019,0 hPa 0,0 l/m 2 min 0 min 1,0 UV-I 400 W/m 23,0 km/h (4 Bft)
20.06.2014 10:24 14,8 C 13,9 C 83 % 1019,0 hPa 0,0 l/m 0 min 0 min 1,1 UV-I 371 W/m 20,9 km/h (4 Bft)
20.06.2014 10:26 14,8 C 13,9 C 83 % 1019,0 hPa 0,0 l/m 0 min 0 min 0,8 UV-I 283 W/m 18,8 km/h (3 Bft)
20.06.2014 10:28 14,8 C 13,9 C 84 % 1019,1 hPa 0,0 l/m 0 min 0 min 0,5 UV-I 218 W/m 16,7 km/h (3 Bft)
20.06.2014 10:30 14,7 C 13,9 C 83 % 1019,1 hPa 0,0 l/m 0 min 0 min 1,1 UV-I 256 W/m 14,6 km/h (3 Bft)
20.06.2014 10:32 14,8 C 13,9 C 84 % 1019,0 hPa 0,0 l/m 0 min 0 min 1,1 UV-I 338 W/m 18,8 km/h (3 Bft)
20.06.2014 10:34 14,7 C 13,9 C 83 % 1019,1 hPa 0,0 l/m 0 min 0 min 0,9 UV-I 289 W/m 23,0 km/h (4 Bft)
20.06.2014 10:36 14,8 C 13,9 C 85 % 1019,1 hPa 0,0 l/m 0 min 0 min 1,0 UV-I 301 W/m 10,5 km/h (2 Bft)
20.06.2014 10:38 14,8 C 13,9 C 84 % 1019,1 hPa 0,0 l/m 0 min 0 min 1,2 UV-I 389 W/m 16,7 km/h (3 Bft)
20.06.2014 10:40 14,8 C 14,4 C 82 % 1019,1 hPa 0,0 l/m 2 min 0 min 1,7 UV-I 595 W/m 16,7 km/h (3 Bft)
20.06.2014 10:42 14,9 C 14,4 C 83 % 1019,0 hPa 0,0 l/m 2 min 0 min 1,7 UV-I 619 W/m 20,9 km/h (4 Bft)
20.06.2014 10:44 15,1 C 15,0 C 83 % 1019,1 hPa 0,0 l/m 2 min 0 min 1,0 UV-I 619 W/m 14,6 km/h (3 Bft)
20.06.2014 10:46 15,2 C 15,0 C 83 % 1019,1 hPa 0,0 l/m 2 min 0 min 0,6 UV-I 619 W/m 12,6 km/h (3 Bft)
20.06.2014 10:48 15,3 C 15,0 C 82 % 1019,1 hPa 0,0 l/m 0 min 0 min 1,0 UV-I 277 W/m 14,6 km/h (3 Bft)
20.06.2014 10:50 15,2 C 15,0 C 82 % 1019,1 hPa 0,0 l/m 0 min 0 min 2,2 UV-I 277 W/m 16,7 km/h (3 Bft)
20.06.2014 10:52 15,2 C 15,0 C 82 % 1019,1 hPa 0,0 l/m 0 min 0 min 1,2 UV-I 307 W/m 18,8 km/h (3 Bft)
20.06.2014 10:54 15,3 C 15,0 C 82 % 1019,1 hPa 0,0 l/m 0 min 0 min 1,2 UV-I 352 W/m 14,6 km/h (3 Bft)
20.06.2014 10:56 15,3 C 15,0 C 81 % 1019,2 hPa 0,0 l/m 0 min 0 min 0,6 UV-I 297 W/m 14,6 km/h (3 Bft)
20.06.2014 10:58 15,2 C 14,4 C 81 % 1019,2 hPa 0,0 l/m 0 min 0 min 0,0 UV-I 256 W/m 16,7 km/h (3 Bft)
20.06.2014 11:00 15,1 C 13,9 C 80 % 1019,3 hPa 0,0 l/m 0 min 0 min 0,0 UV-I 113 W/m 27,2 km/h (4 Bft)
20.06.2014 11:02 14,8 C 13,3 C 79 % 1019,3 hPa 0,0 l/m 0 min 0 min 0,0 UV-I 105 W/m 35,6 km/h (5 Bft)
20.06.2014 11:04 14,4 C 13,3 C 77 % 1019,4 hPa 0,0 l/m 0 min 0 min 0,0 UV-I 120 W/m 25,1 km/h (4 Bft)
20.06.2014 11:06 14,2 C 12,8 C 77 % 1019,4 hPa 0,0 l/m 0 min 2 min 0,0 UV-I 120 W/m 25,1 km/h (4 Bft)
20.06.2014 11:08 13,9 C 12,2 C 77 % 1019,5 hPa 0,0 l/m 0 min 0 min 0,0 UV-I 117 W/m 25,1 km/h (4 Bft)
20.06.2014 11:10 13,8 C 12,2 C 78 % 1019,4 hPa 0,0 l/m 0 min 0 min 0,0 UV-I 130 W/m 25,1 km/h (4 Bft)
20.06.2014 11:12 13,6 C 12,2 C 79 % 1019,4 hPa 0,0 l/m 0 min 0 min 0,0 UV-I 136 W/m 18,8 km/h (3 Bft)
20.06.2014 11:14 13,6 C 12,2 C 80 % 1019,4 hPa 0,0 l/m 0 min 2 min 0,0 UV-I 150 W/m 27,2 km/h (4 Bft)
20.06.2014 11:16 13,5 C 12,2 C 81 % 1019,5 hPa 0,0 l/m 0 min 0 min 0,0 UV-I 168 W/m 14,6 km/h (3 Bft)
20.06.2014 11:18 13,5 C 12,2 C 82 % 1019,5 hPa 0,0 l/m 0 min 0 min 0,0 UV-I 178 W/m 16,7 km/h (3 Bft)
20.06.2014 11:20 13,4 C 12,2 C 82 % 1019,4 hPa 0,0 l/m 0 min 0 min 0,0 UV-I 198 W/m 16,7 km/h (3 Bft)
20.06.2014 11:22 13,4 C 12,8 C 82 % 1019,4 hPa 0,0 l/m 0 min 0 min 0,5 UV-I 224 W/m 16,7 km/h (3 Bft)
20.06.2014 11:24 13,5 C 12,8 C 83 % 1019,4 hPa 0,0 l/m 0 min 0 min 0,7 UV-I 267 W/m 12,6 km/h (3 Bft)
20.06.2014 11:26 13,5 C 13,3 C 83 % 1019,3 hPa 0,0 l/m 0 min 0 min 1,0 UV-I 320 W/m 12,6 km/h (3 Bft)
20.06.2014 11:28 13,6 C 13,3 C 83 % 1019,4 hPa 0,0 l/m 0 min 0 min 0,9 UV-I 313 W/m 14,6 km/h (3 Bft)
20.06.2014 11:30 13,7 C 13,3 C 83 % 1019,4 hPa 0,0 l/m 0 min 0 min 0,8 UV-I 288 W/m 16,7 km/h (3 Bft)
20.06.2014 11:32 13,8 C 13,3 C 81 % 1019,4 hPa 0,0 l/m 0 min 0 min 0,8 UV-I 291 W/m 16,7 km/h (3 Bft)
20.06.2014 11:34 13,9 C 13,9 C 82 % 1019,4 hPa 0,0 l/m 0 min 0 min 1,0 UV-I 321 W/m 23,0 km/h (4 Bft)
20.06.2014 11:36 14,0 C 13,9 C 81 % 1019,4 hPa 0,0 l/m 0 min 0 min 1,1 UV-I 347 W/m 10,5 km/h (2 Bft)
20.06.2014 11:38 14,2 C 13,9 C 81 % 1019,4 hPa 0,0 l/m 0 min 0 min 1,2 UV-I 354 W/m 16,7 km/h (3 Bft)
20.06.2014 11:40 14,2 C 13,9 C 80 % 1019,4 hPa 0,0 l/m 0 min 0 min 1,1 UV-I 339 W/m 20,9 km/h (4 Bft)
20.06.2014 11:42 14,2 C 13,9 C 79 % 1019,4 hPa 0,0 l/m 0 min 0 min 1,0 UV-I 320 W/m 25,1 km/h (4 Bft)
20.06.2014 11:44 14,3 C 13,9 C 79 % 1019,5 hPa 0,0 l/m 0 min 0 min 1,0 UV-I 309 W/m 12,6 km/h (3 Bft)
20.06.2014 11:46 14,3 C 13,9 C 79 % 1019,5 hPa 0,0 l/m 0 min 0 min 0,9 UV-I 301 W/m 18,8 km/h (3 Bft)
20.06.2014 11:48 14,3 C 13,9 C 79 % 1019,5 hPa 0,0 l/m 0 min 0 min 0,9 UV-I 301 W/m 20,9 km/h (4 Bft)
20.06.2014 11:50 14,3 C 13,9 C 79 % 1019,5 hPa 0,0 l/m 0 min 0 min 1,0 UV-I 312 W/m 25,1 km/h (4 Bft)
20.06.2014 11:52 14,4 C 13,9 C 79 % 1019,5 hPa 0,0 l/m 0 min 0 min 1,0 UV-I 304 W/m 23,0 km/h (4 Bft)
20.06.2014 11:54 14,3 C 13,9 C 79 % 1019,5 hPa 0,0 l/m 0 min 0 min 0,6 UV-I 221 W/m 20,9 km/h (4 Bft)
20.06.2014 11:56 14,3 C 13,9 C 79 % 1019,6 hPa 0,0 l/m 0 min 0 min 0,0 UV-I 198 W/m 18,8 km/h (3 Bft)
20.06.2014 11:58 14,2 C 13,9 C 79 % 1019,5 hPa 0,0 l/m 0 min 0 min 0,0 UV-I 205 W/m 12,6 km/h (3 Bft)
20.06.2014 12:00 14,2 C 13,9 C 80 % 1019,6 hPa 0,0 l/m 0 min 0 min 0,6 UV-I 235 W/m 29,3 km/h (5 Bft)
20.06.2014 12:02 14,2 C 13,9 C 79 % 1019,7 hPa 0,0 l/m 0 min 0 min 0,7 UV-I 243 W/m 23,0 km/h (4 Bft)
20.06.2014 12:06 13,9 C 13,9 C 81 % 1019,5 hPa 0,0 l/m 0 min 0 min 0,8 UV-I 291 W/m 20,9 km/h (4 Bft)
20.06.2014 12:08 14,0 C 13,9 C 82 % 1019,5 hPa 0,0 l/m 0 min 0 min 1,2 UV-I 330 W/m 10,5 km/h (2 Bft)
20.06.2014 12:10 14,2 C 14,4 C 83 % 1019,5 hPa 0,0 l/m 0 min 0 min 1,5 UV-I 378 W/m 14,6 km/h (3 Bft)
20.06.2014 12:12 14,2 C 14,4 C 82 % 1019,5 hPa 0,0 l/m 2 min 0 min 1,7 UV-I 473 W/m 14,6 km/h (3 Bft)
20.06.2014 12:14 14,4 C 15,0 C 82 % 1019,5 hPa 0,0 l/m 2 min 0 min 1,9 UV-I 459 W/m 8,4 km/h (2 Bft)
20.06.2014 12:16 14,7 C 15,0 C 82 % 1019,5 hPa 0,0 l/m 2 min 0 min 1,9 UV-I 469 W/m 16,7 km/h (3 Bft)
20.06.2014 12:18 14,7 C 15,0 C 80 % 1019,4 hPa 0,0 l/m 2 min 0 min 2,0 UV-I 472 W/m 10,5 km/h (2 Bft)
20.06.2014 12:20 14,7 C 15,0 C 80 % 1019,4 hPa 0,0 l/m 0 min 0 min 1,9 UV-I 461 W/m 12,6 km/h (3 Bft)
20.06.2014 12:22 15,0 C 15,6 C 81 % 1019,4 hPa 0,0 l/m 0 min 0 min 2,0 UV-I 455 W/m 10,5 km/h (2 Bft)
20.06.2014 12:24 15,2 C 15,6 C 80 % 1019,3 hPa 0,0 l/m 2 min 0 min 2,2 UV-I 477 W/m 10,5 km/h (2 Bft)
20.06.2014 12:26 15,4 C 16,1 C 80 % 1019,3 hPa 0,0 l/m 2 min 0 min 2,2 UV-I 475 W/m 8,4 km/h (2 Bft)
20.06.2014 12:28 15,5 C 16,1 C 77 % 1019,4 hPa 0,0 l/m 2 min 0 min 2,4 UV-I 488 W/m 10,5 km/h (2 Bft)
20.06.2014 12:30 15,6 C 16,1 C 78 % 1019,4 hPa 0,0 l/m 2 min 0 min 3,8 UV-I 619 W/m 10,5 km/h (2 Bft)
20.06.2014 12:32 15,8 C 16,7 C 78 % 1019,3 hPa 0,0 l/m 2 min 0 min 3,4 UV-I 566 W/m 12,6 km/h (3 Bft)
20.06.2014 12:34 16,2 C 17,2 C 78 % 1019,3 hPa 0,0 l/m 2 min 0 min 3,7 UV-I 566 W/m 12,6 km/h (3 Bft)
20.06.2014 12:36 16,3 C 18,3 C 76 % 1019,3 hPa 0,0 l/m 2 min 0 min 5,0 UV-I 1344 W/m 14,6 km/h (3 Bft)
20.06.2014 12:38 16,6 C 19,4 C 74 % 1019,3 hPa 0,0 l/m 2 min 0 min 4,8 UV-I 1344 W/m 16,7 km/h (3 Bft)
20.06.2014 12:40 16,8 C 19,4 C 74 % 1019,3 hPa 0,0 l/m 2 min 0 min 5,1 UV-I 1344 W/m 12,6 km/h (3 Bft)
20.06.2014 12:42 17,2 C 20,6 C 73 % 1019,3 hPa 0,0 l/m 2 min 0 min 4,9 UV-I 1344 W/m 14,6 km/h (3 Bft)
20.06.2014 12:44 17,4 C 21,7 C 74 % 1019,3 hPa 0,0 l/m 2 min 0 min 4,9 UV-I 1134 W/m 18,8 km/h (3 Bft)
20.06.2014 12:46 17,6 C 21,7 C 70 % 1019,3 hPa 0,0 l/m 2 min 0 min 5,0 UV-I 1051 W/m 18,8 km/h (3 Bft)
20.06.2014 12:48 17,6 C 20,6 C 69 % 1019,3 hPa 0,0 l/m 2 min 0 min 4,1 UV-I 1051 W/m 14,6 km/h (3 Bft)
20.06.2014 12:50 17,4 C 20,6 C 70 % 1019,2 hPa 0,0 l/m 2 min 0 min 5,4 UV-I 1051 W/m 16,7 km/h (3 Bft)
20.06.2014 12:52 17,3 C 20,0 C 68 % 1019,3 hPa 0,0 l/m 2 min 0 min 3,6 UV-I 875 W/m 14,6 km/h (3 Bft)
20.06.2014 12:54 17,1 C 19,4 C 68 % 1019,3 hPa 0,0 l/m 2 min 0 min 3,3 UV-I 875 W/m 12,6 km/h (3 Bft)
20.06.2014 12:56 17,2 C 19,4 C 69 % 1019,2 hPa 0,0 l/m 2 min 0 min 3,2 UV-I 730 W/m 14,6 km/h (3 Bft)
20.06.2014 12:58 17,2 C 19,4 C 69 % 1019,3 hPa 0,0 l/m 2 min 0 min 3,7 UV-I 730 W/m 20,9 km/h (4 Bft)
20.06.2014 13:00 17,1 C 18,9 C 68 % 1019,2 hPa 0,0 l/m 2 min 0 min 3,1 UV-I 750 W/m 20,9 km/h (4 Bft)
20.06.2014 13:02 17,1 C 18,9 C 70 % 1019,2 hPa 0,0 l/m 2 min 0 min 4,0 UV-I 750 W/m 16,7 km/h (3 Bft)
20.06.2014 13:04 17,3 C 19,4 C 71 % 1019,3 hPa 0,0 l/m 2 min 0 min 3,0 UV-I 629 W/m 18,8 km/h (3 Bft)
20.06.2014 13:06 17,6 C 18,9 C 71 % 1019,2 hPa 0,0 l/m 2 min 0 min 2,8 UV-I 600 W/m 25,1 km/h (4 Bft)
20.06.2014 13:08 17,6 C 18,9 C 69 % 1019,2 hPa 0,0 l/m 2 min 0 min 3,1 UV-I 685 W/m 16,7 km/h (3 Bft)
20.06.2014 13:10 17,4 C 18,3 C 67 % 1019,3 hPa 0,0 l/m 2 min 0 min 2,9 UV-I 622 W/m 14,6 km/h (3 Bft)
20.06.2014 13:12 17,2 C 18,3 C 68 % 1019,2 hPa 0,0 l/m 2 min 0 min 2,4 UV-I 539 W/m 14,6 km/h (3 Bft)
20.06.2014 13:14 17,3 C 18,3 C 73 % 1019,2 hPa 0,0 l/m 2 min 0 min 2,2 UV-I 512 W/m 14,6 km/h (3 Bft)
20.06.2014 13:16 17,7 C 18,9 C 74 % 1019,2 hPa 0,0 l/m 2 min 0 min 2,1 UV-I 489 W/m 14,6 km/h (3 Bft)
20.06.2014 13:18 17,8 C 18,3 C 70 % 1019,1 hPa 0,0 l/m 0 min 0 min 2,0 UV-I 473 W/m 27,2 km/h (4 Bft)
20.06.2014 13:20 17,8 C 18,3 C 70 % 1019,1 hPa 0,0 l/m 0 min 0 min 1,9 UV-I 440 W/m 16,7 km/h (3 Bft)
20.06.2014 13:22 17,6 C 18,3 C 69 % 1019,1 hPa 0,0 l/m 0 min 0 min 1,9 UV-I 445 W/m 25,1 km/h (4 Bft)
20.06.2014 13:24 17,4 C 17,8 C 69 % 1019,1 hPa 0,0 l/m 0 min 0 min 2,1 UV-I 465 W/m 25,1 km/h (4 Bft)
20.06.2014 13:26 17,3 C 17,8 C 68 % 1019,1 hPa 0,0 l/m 2 min 0 min 2,2 UV-I 489 W/m 18,8 km/h (3 Bft)
20.06.2014 13:28 17,1 C 17,8 C 69 % 1019,1 hPa 0,0 l/m 2 min 0 min 2,6 UV-I 619 W/m 16,7 km/h (3 Bft)
20.06.2014 13:30 17,2 C 18,3 C 72 % 1019,1 hPa 0,0 l/m 2 min 0 min 2,5 UV-I 534 W/m 18,8 km/h (3 Bft)
20.06.2014 13:32 17,2 C 17,8 C 69 % 1019,1 hPa 0,0 l/m 2 min 0 min 2,5 UV-I 523 W/m 18,8 km/h (3 Bft)
20.06.2014 13:34 17,1 C 17,8 C 70 % 1019,2 hPa 0,0 l/m 2 min 0 min 2,7 UV-I 547 W/m 20,9 km/h (4 Bft)
20.06.2014 13:36 17,4 C 18,3 C 71 % 1019,1 hPa 0,0 l/m 2 min 0 min 2,7 UV-I 562 W/m 20,9 km/h (4 Bft)
20.06.2014 13:38 17,5 C 18,3 C 69 % 1019,2 hPa 0,0 l/m 2 min 0 min 2,5 UV-I 518 W/m 25,1 km/h (4 Bft)
20.06.2014 13:40 17,4 C 18,3 C 67 % 1019,2 hPa 0,0 l/m 2 min 0 min 2,7 UV-I 582 W/m 25,1 km/h (4 Bft)
20.06.2014 13:42 17,5 C 18,3 C 67 % 1019,2 hPa 0,0 l/m 2 min 0 min 3,6 UV-I 582 W/m 18,8 km/h (3 Bft)
20.06.2014 13:44 17,8 C 18,9 C 67 % 1019,2 hPa 0,0 l/m 2 min 0 min 2,5 UV-I 546 W/m 20,9 km/h (4 Bft)
20.06.2014 13:46 17,8 C 18,9 C 65 % 1019,3 hPa 0,0 l/m 2 min 0 min 2,7 UV-I 546 W/m 18,8 km/h (3 Bft)
20.06.2014 13:48 17,8 C 18,9 C 68 % 1019,2 hPa 0,0 l/m 2 min 0 min 2,9 UV-I 589 W/m 18,8 km/h (3 Bft)
20.06.2014 13:50 17,7 C 18,3 C 66 % 1019,2 hPa 0,0 l/m 2 min 0 min 3,1 UV-I 606 W/m 27,2 km/h (4 Bft)
20.06.2014 13:52 17,5 C 18,3 C 65 % 1019,2 hPa 0,0 l/m 2 min 0 min 2,9 UV-I 592 W/m 23,0 km/h (4 Bft)
20.06.2014 13:54 17,4 C 18,3 C 65 % 1019,2 hPa 0,0 l/m 2 min 0 min 3,1 UV-I 673 W/m 25,1 km/h (4 Bft)
20.06.2014 13:56 17,6 C 18,9 C 66 % 1019,2 hPa 0,0 l/m 2 min 0 min 3,2 UV-I 673 W/m 18,8 km/h (3 Bft)
20.06.2014 13:58 17,8 C 18,9 C 68 % 1019,3 hPa 0,0 l/m 2 min 0 min 2,2 UV-I 580 W/m 20,9 km/h (4 Bft)
20.06.2014 14:00 17,8 C 18,3 C 65 % 1019,2 hPa 0,0 l/m 0 min 0 min 1,4 UV-I 398 W/m 18,8 km/h (3 Bft)
20.06.2014 14:02 17,7 C 18,3 C 66 % 1019,2 hPa 0,0 l/m 0 min 0 min 1,3 UV-I 350 W/m 16,7 km/h (3 Bft)
20.06.2014 14:04 17,7 C 17,8 C 66 % 1019,2 hPa 0,0 l/m 0 min 0 min 1,4 UV-I 374 W/m 14,6 km/h (3 Bft)
20.06.2014 14:06 17,6 C 17,8 C 66 % 1019,3 hPa 0,0 l/m 0 min 0 min 1,2 UV-I 339 W/m 14,6 km/h (3 Bft)
20.06.2014 14:08 17,4 C 17,2 C 65 % 1019,3 hPa 0,0 l/m 0 min 0 min 1,2 UV-I 336 W/m 35,6 km/h (5 Bft)
20.06.2014 14:10 17,1 C 16,7 C 64 % 1019,3 hPa 0,0 l/m 0 min 0 min 1,1 UV-I 313 W/m 23,0 km/h (4 Bft)
20.06.2014 14:12 16,8 C 16,7 C 66 % 1019,3 hPa 0,0 l/m 0 min 0 min 0,9 UV-I 296 W/m 27,2 km/h (4 Bft)
20.06.2014 14:14 16,6 C 16,1 C 66 % 1019,3 hPa 0,0 l/m 0 min 0 min 0,9 UV-I 281 W/m 23,0 km/h (4 Bft)
20.06.2014 14:16 16,6 C 16,1 C 66 % 1019,2 hPa 0,0 l/m 0 min 0 min 0,8 UV-I 275 W/m 14,6 km/h (3 Bft)
20.06.2014 14:18 16,6 C 16,1 C 66 % 1019,3 hPa 0,0 l/m 0 min 0 min 0,8 UV-I 277 W/m 18,8 km/h (3 Bft)
20.06.2014 14:20 16,6 C 16,1 C 66 % 1019,3 hPa 0,0 l/m 0 min 0 min 0,9 UV-I 293 W/m 23,0 km/h (4 Bft)
20.06.2014 14:22 16,6 C 16,1 C 67 % 1019,2 hPa 0,0 l/m 0 min 0 min 1,1 UV-I 313 W/m 16,7 km/h (3 Bft)
20.06.2014 14:24 16,5 C 16,1 C 67 % 1019,3 hPa 0,0 l/m 0 min 0 min 1,2 UV-I 321 W/m 18,8 km/h (3 Bft)
20.06.2014 14:26 16,5 C 16,7 C 68 % 1019,2 hPa 0,0 l/m 0 min 0 min 1,3 UV-I 346 W/m 16,7 km/h (3 Bft)
20.06.2014 14:28 16,4 C 16,7 C 68 % 1019,3 hPa 0,0 l/m 0 min 0 min 1,5 UV-I 368 W/m 16,7 km/h (3 Bft)
20.06.2014 14:30 16,6 C 16,7 C 68 % 1019,3 hPa 0,0 l/m 0 min 0 min 1,6 UV-I 394 W/m 12,6 km/h (3 Bft)
20.06.2014 14:32 16,6 C 16,7 C 69 % 1019,3 hPa 0,0 l/m 0 min 0 min 1,8 UV-I 430 W/m 12,6 km/h (3 Bft)
20.06.2014 14:34 16,8 C 17,2 C 70 % 1019,3 hPa 0,0 l/m 0 min 0 min 2,0 UV-I 463 W/m 20,9 km/h (4 Bft)
20.06.2014 14:36 16,9 C 17,2 C 68 % 1019,2 hPa 0,0 l/m 2 min 0 min 2,1 UV-I 483 W/m 18,8 km/h (3 Bft)
20.06.2014 14:38 17,1 C 17,8 C 68 % 1019,2 hPa 0,0 l/m 2 min 0 min 2,2 UV-I 603 W/m 18,8 km/h (3 Bft)
20.06.2014 14:40 17,3 C 18,3 C 70 % 1019,3 hPa 0,0 l/m 2 min 0 min 2,5 UV-I 566 W/m 16,7 km/h (3 Bft)
20.06.2014 14:42 17,4 C 18,3 C 68 % 1019,2 hPa 0,0 l/m 2 min 0 min 2,9 UV-I 627 W/m 23,0 km/h (4 Bft)
20.06.2014 14:44 17,5 C 18,9 C 70 % 1019,2 hPa 0,0 l/m 2 min 0 min 2,5 UV-I 530 W/m 23,0 km/h (4 Bft)
20.06.2014 14:46 17,6 C 18,3 C 68 % 1019,3 hPa 0,0 l/m 2 min 0 min 2,4 UV-I 539 W/m 18,8 km/h (3 Bft)
20.06.2014 14:48 17,4 C 18,3 C 65 % 1019,3 hPa 0,0 l/m 2 min 0 min 2,5 UV-I 526 W/m 18,8 km/h (3 Bft)
20.06.2014 14:50 17,3 C 18,3 C 66 % 1019,3 hPa 0,0 l/m 2 min 0 min 2,2 UV-I 501 W/m 16,7 km/h (3 Bft)
20.06.2014 14:52 17,3 C 18,3 C 67 % 1019,3 hPa 0,0 l/m 2 min 0 min 2,6 UV-I 580 W/m 18,8 km/h (3 Bft)
20.06.2014 14:54 17,4 C 18,3 C 67 % 1019,2 hPa 0,0 l/m 2 min 0 min 2,3 UV-I 528 W/m 18,8 km/h (3 Bft)
20.06.2014 14:56 17,4 C 18,3 C 67 % 1019,2 hPa 0,0 l/m 2 min 0 min 2,3 UV-I 531 W/m 27,2 km/h (4 Bft)
20.06.2014 14:58 17,2 C 17,8 C 65 % 1019,2 hPa 0,0 l/m 2 min 0 min 2,6 UV-I 592 W/m 23,0 km/h (4 Bft)
20.06.2014 15:00 17,2 C 17,8 C 67 % 1019,2 hPa 0,0 l/m 2 min 0 min 2,5 UV-I 558 W/m 20,9 km/h (4 Bft)
20.06.2014 15:02 17,3 C 18,9 C 67 % 1019,2 hPa 0,0 l/m 2 min 0 min 3,7 UV-I 590 W/m 23,0 km/h (4 Bft)
20.06.2014 15:04 17,5 C 19,4 C 68 % 1019,2 hPa 0,0 l/m 2 min 0 min 2,8 UV-I 696 W/m 18,8 km/h (3 Bft)
20.06.2014 15:06 17,9 C 20,0 C 67 % 1019,2 hPa 0,0 l/m 2 min 0 min 3,1 UV-I 766 W/m 18,8 km/h (3 Bft)
20.06.2014 15:08 18,1 C 20,0 C 66 % 1019,2 hPa 0,0 l/m 2 min 0 min 2,5 UV-I 653 W/m 18,8 km/h (3 Bft)
20.06.2014 15:10 17,9 C 19,4 C 65 % 1019,1 hPa 0,0 l/m 2 min 0 min 2,2 UV-I 562 W/m 20,9 km/h (4 Bft)
20.06.2014 15:12 17,8 C 18,9 C 65 % 1019,1 hPa 0,0 l/m 2 min 0 min 1,8 UV-I 499 W/m 14,6 km/h (3 Bft)
20.06.2014 15:14 17,7 C 18,9 C 65 % 1019,2 hPa 0,0 l/m 2 min 0 min 1,7 UV-I 472 W/m 20,9 km/h (4 Bft)
20.06.2014 15:16 17,7 C 18,9 C 67 % 1019,3 hPa 0,0 l/m 0 min 0 min 1,6 UV-I 443 W/m 20,9 km/h (4 Bft)
20.06.2014 15:18 17,8 C 18,3 C 65 % 1019,2 hPa 0,0 l/m 0 min 0 min 1,3 UV-I 368 W/m 23,0 km/h (4 Bft)
20.06.2014 15:20 17,7 C 17,8 C 66 % 1019,2 hPa 0,0 l/m 0 min 0 min 1,2 UV-I 336 W/m 18,8 km/h (3 Bft)
20.06.2014 15:22 17,6 C 17,8 C 66 % 1019,2 hPa 0,0 l/m 0 min 0 min 1,1 UV-I 331 W/m 23,0 km/h (4 Bft)
20.06.2014 15:24 17,4 C 17,2 C 66 % 1019,1 hPa 0,0 l/m 0 min 0 min 1,0 UV-I 313 W/m 20,9 km/h (4 Bft)
20.06.2014 15:26 17,3 C 17,2 C 67 % 1019,2 hPa 0,0 l/m 0 min 0 min 0,8 UV-I 273 W/m 20,9 km/h (4 Bft)
20.06.2014 15:28 17,2 C 16,7 C 68 % 1019,2 hPa 0,0 l/m 0 min 0 min 0,8 UV-I 273 W/m 23,0 km/h (4 Bft)
20.06.2014 15:30 17,1 C 16,7 C 67 % 1019,2 hPa 0,0 l/m 0 min 0 min 0,8 UV-I 281 W/m 25,1 km/h (4 Bft)
20.06.2014 15:32 17,0 C 16,7 C 67 % 1019,2 hPa 0,0 l/m 0 min 0 min 0,8 UV-I 273 W/m 14,6 km/h (3 Bft)
20.06.2014 15:34 16,9 C 16,7 C 67 % 1019,2 hPa 0,0 l/m 0 min 0 min 0,7 UV-I 259 W/m 20,9 km/h (4 Bft)
20.06.2014 15:36 16,9 C 16,7 C 67 % 1019,1 hPa 0,0 l/m 0 min 0 min 0,6 UV-I 235 W/m 20,9 km/h (4 Bft)
20.06.2014 15:38 16,9 C 16,7 C 67 % 1019,2 hPa 0,0 l/m 0 min 0 min 0,5 UV-I 218 W/m 18,8 km/h (3 Bft)
20.06.2014 15:40 16,8 C 16,1 C 66 % 1019,2 hPa 0,0 l/m 0 min 0 min 0,0 UV-I 200 W/m 18,8 km/h (3 Bft)
20.06.2014 15:42 16,8 C 16,1 C 68 % 1019,1 hPa 0,0 l/m 0 min 0 min 0,0 UV-I 182 W/m 14,6 km/h (3 Bft)
20.06.2014 15:44 16,7 C 16,1 C 68 % 1019,2 hPa 0,0 l/m 0 min 0 min 0,0 UV-I 174 W/m 16,7 km/h (3 Bft)
20.06.2014 15:46 16,7 C 16,1 C 68 % 1019,2 hPa 0,0 l/m 0 min 0 min 0,0 UV-I 166 W/m 18,8 km/h (3 Bft)
20.06.2014 15:48 16,7 C 16,1 C 68 % 1019,1 hPa 0,0 l/m 0 min 0 min 0,0 UV-I 162 W/m 14,6 km/h (3 Bft)
20.06.2014 15:50 16,7 C 16,1 C 69 % 1019,1 hPa 0,0 l/m 0 min 0 min 0,0 UV-I 170 W/m 14,6 km/h (3 Bft)
20.06.2014 15:52 16,7 C 16,1 C 69 % 1019,1 hPa 0,0 l/m 0 min 0 min 0,0 UV-I 197 W/m 8,4 km/h (2 Bft)
20.06.2014 15:54 16,7 C 16,1 C 69 % 1019,1 hPa 0,0 l/m 0 min 0 min 0,6 UV-I 264 W/m 10,5 km/h (2 Bft)
20.06.2014 15:56 16,7 C 16,7 C 68 % 1019,2 hPa 0,0 l/m 0 min 0 min 1,0 UV-I 313 W/m 10,5 km/h (2 Bft)
20.06.2014 15:58 16,7 C 16,7 C 69 % 1019,2 hPa 0,0 l/m 0 min 0 min 1,2 UV-I 347 W/m 10,5 km/h (2 Bft)
20.06.2014 16:00 16,8 C 16,7 C 69 % 1019,1 hPa 0,0 l/m 2 min 0 min 1,4 UV-I 455 W/m 16,7 km/h (3 Bft)
20.06.2014 16:02 17,0 C 17,2 C 69 % 1019,1 hPa 0,0 l/m 2 min 0 min 3,2 UV-I 1030 W/m 8,4 km/h (2 Bft)
20.06.2014 16:04 17,5 C 18,3 C 69 % 1019,1 hPa 0,0 l/m 2 min 0 min 3,1 UV-I 1025 W/m 10,5 km/h (2 Bft)
20.06.2014 16:06 18,0 C 18,9 C 70 % 1019,1 hPa 0,0 l/m 2 min 0 min 2,6 UV-I 904 W/m 10,5 km/h (2 Bft)
20.06.2014 16:08 18,3 C 19,4 C 66 % 1019,1 hPa 0,0 l/m 2 min 0 min 1,9 UV-I 923 W/m 8,4 km/h (2 Bft)
20.06.2014 16:10 18,2 C 19,4 C 65 % 1019,1 hPa 0,0 l/m 2 min 0 min 2,8 UV-I 922 W/m 12,6 km/h (3 Bft)
20.06.2014 16:12 18,0 C 18,9 C 64 % 1019,1 hPa 0,0 l/m 2 min 0 min 2,1 UV-I 922 W/m 14,6 km/h (3 Bft)
20.06.2014 16:14 18,2 C 18,9 C 67 % 1019,0 hPa 0,0 l/m 2 min 0 min 2,0 UV-I 891 W/m 12,6 km/h (3 Bft)
20.06.2014 16:16 18,2 C 18,9 C 66 % 1019,0 hPa 0,0 l/m 0 min 0 min 2,3 UV-I 267 W/m 10,5 km/h (2 Bft)
20.06.2014 16:18 18,3 C 18,9 C 64 % 1019,1 hPa 0,0 l/m 2 min 0 min 2,7 UV-I 835 W/m 16,7 km/h (3 Bft)
20.06.2014 16:20 18,2 C 18,9 C 64 % 1019,0 hPa 0,0 l/m 2 min 0 min 2,6 UV-I 835 W/m 18,8 km/h (3 Bft)
20.06.2014 16:22 18,4 C 18,9 C 66 % 1019,0 hPa 0,0 l/m 2 min 0 min 1,9 UV-I 835 W/m 10,5 km/h (2 Bft)
20.06.2014 16:24 18,7 C 18,9 C 65 % 1019,0 hPa 0,0 l/m 2 min 0 min 1,8 UV-I 437 W/m 18,8 km/h (3 Bft)
20.06.2014 16:26 18,7 C 18,9 C 64 % 1019,0 hPa 0,0 l/m 2 min 0 min 1,4 UV-I 515 W/m 12,6 km/h (3 Bft)
20.06.2014 16:28 18,5 C 18,3 C 62 % 1019,0 hPa 0,0 l/m 0 min 0 min 1,5 UV-I 384 W/m 20,9 km/h (4 Bft)
20.06.2014 16:30 18,5 C 18,3 C 64 % 1018,9 hPa 0,0 l/m 0 min 0 min 1,7 UV-I 384 W/m 12,6 km/h (3 Bft)
20.06.2014 16:32 18,6 C 18,3 C 64 % 1018,9 hPa 0,0 l/m 0 min 0 min 2,2 UV-I 384 W/m 16,7 km/h (3 Bft)
20.06.2014 16:34 18,6 C 18,9 C 63 % 1018,8 hPa 0,0 l/m 2 min 0 min 2,5 UV-I 963 W/m 10,5 km/h (2 Bft)
20.06.2014 16:36 18,8 C 19,4 C 65 % 1018,8 hPa 0,0 l/m 2 min 0 min 2,4 UV-I 984 W/m 16,7 km/h (3 Bft)
20.06.2014 16:38 19,0 C 19,4 C 62 % 1018,7 hPa 0,0 l/m 0 min 0 min 1,3 UV-I 347 W/m 16,7 km/h (3 Bft)
20.06.2014 16:40 18,9 C 19,4 C 64 % 1018,7 hPa 0,0 l/m 0 min 0 min 1,2 UV-I 339 W/m 16,7 km/h (3 Bft)
20.06.2014 16:42 18,9 C 18,9 C 63 % 1018,7 hPa 0,0 l/m 0 min 0 min 1,2 UV-I 346 W/m 18,8 km/h (3 Bft)
20.06.2014 16:44 18,6 C 18,3 C 60 % 1018,8 hPa 0,0 l/m 0 min 0 min 1,1 UV-I 325 W/m 14,6 km/h (3 Bft)
20.06.2014 16:46 18,4 C 18,3 C 64 % 1018,7 hPa 0,0 l/m 0 min 0 min 1,1 UV-I 312 W/m 8,4 km/h (2 Bft)
20.06.2014 16:48 18,3 C 18,3 C 61 % 1018,8 hPa 0,0 l/m 0 min 0 min 1,0 UV-I 273 W/m 10,5 km/h (2 Bft)
20.06.2014 16:50 18,2 C 17,8 C 62 % 1018,7 hPa 0,0 l/m 0 min 0 min 1,0 UV-I 289 W/m 10,5 km/h (2 Bft)
20.06.2014 16:52 18,1 C 17,8 C 62 % 1018,7 hPa 0,0 l/m 0 min 0 min 1,0 UV-I 313 W/m 10,5 km/h (2 Bft)
20.06.2014 16:54 18,2 C 18,3 C 65 % 1018,8 hPa 0,0 l/m 2 min 0 min 1,4 UV-I 546 W/m 12,6 km/h (3 Bft)
20.06.2014 16:56 18,3 C 18,3 C 62 % 1018,7 hPa 0,0 l/m 2 min 0 min 1,0 UV-I 546 W/m 18,8 km/h (3 Bft)
20.06.2014 16:58 18,2 C 17,8 C 61 % 1018,8 hPa 0,0 l/m 2 min 0 min 1,0 UV-I 467 W/m 12,6 km/h (3 Bft)
20.06.2014 17:00 18,2 C 18,3 C 63 % 1018,7 hPa 0,0 l/m 2 min 0 min 1,0 UV-I 386 W/m 10,5 km/h (2 Bft)
20.06.2014 17:02 18,3 C 18,3 C 62 % 1018,7 hPa 0,0 l/m 0 min 0 min 0,9 UV-I 334 W/m 20,9 km/h (4 Bft)
20.06.2014 17:04 18,3 C 18,3 C 61 % 1018,8 hPa 0,0 l/m 2 min 0 min 0,9 UV-I 380 W/m 14,6 km/h (3 Bft)
20.06.2014 17:06 18,2 C 18,3 C 62 % 1018,7 hPa 0,0 l/m 0 min 0 min 0,8 UV-I 334 W/m 12,6 km/h (3 Bft)
20.06.2014 17:08 18,2 C 18,3 C 61 % 1018,8 hPa 0,0 l/m 0 min 0 min 0,7 UV-I 305 W/m 14,6 km/h (3 Bft)
20.06.2014 17:10 18,2 C 18,3 C 63 % 1018,8 hPa 0,0 l/m 0 min 0 min 0,7 UV-I 291 W/m 14,6 km/h (3 Bft)
20.06.2014 17:12 18,2 C 18,3 C 62 % 1018,8 hPa 0,0 l/m 0 min 0 min 0,7 UV-I 291 W/m 27,2 km/h (4 Bft)
20.06.2014 17:14 18,2 C 17,8 C 61 % 1018,8 hPa 0,0 l/m 0 min 0 min 0,7 UV-I 291 W/m 25,1 km/h (4 Bft)
20.06.2014 17:16 18,2 C 17,8 C 62 % 1018,9 hPa 0,0 l/m 0 min 0 min 0,6 UV-I 275 W/m 23,0 km/h (4 Bft)
20.06.2014 17:18 18,2 C 17,8 C 61 % 1018,9 hPa 0,0 l/m 0 min 0 min 0,5 UV-I 264 W/m 20,9 km/h (4 Bft)
20.06.2014 17:20 18,2 C 17,8 C 62 % 1019,0 hPa 0,0 l/m 0 min 0 min 0,0 UV-I 254 W/m 14,6 km/h (3 Bft)
20.06.2014 17:22 18,3 C 17,8 C 63 % 1018,9 hPa 0,0 l/m 0 min 0 min 0,0 UV-I 229 W/m 20,9 km/h (4 Bft)
20.06.2014 17:24 18,2 C 17,8 C 61 % 1019,0 hPa 0,0 l/m 0 min 0 min 0,0 UV-I 208 W/m 27,2 km/h (4 Bft)
20.06.2014 17:26 18,1 C 17,2 C 61 % 1019,0 hPa 0,0 l/m 0 min 0 min 0,0 UV-I 190 W/m 20,9 km/h (4 Bft)
20.06.2014 17:28 18,0 C 17,2 C 61 % 1018,9 hPa 0,0 l/m 0 min 0 min 0,0 UV-I 166 W/m 14,6 km/h (3 Bft)
20.06.2014 17:30 17,9 C 17,2 C 61 % 1019,0 hPa 0,0 l/m 0 min 0 min 0,0 UV-I 152 W/m 14,6 km/h (3 Bft)
20.06.2014 17:32 17,8 C 16,7 C 61 % 1019,0 hPa 0,0 l/m 0 min 0 min 0,0 UV-I 141 W/m 12,6 km/h (3 Bft)
20.06.2014 17:34 17,7 C 16,7 C 63 % 1019,0 hPa 0,0 l/m 0 min 0 min 0,0 UV-I 146 W/m 23,0 km/h (4 Bft)
20.06.2014 17:36 17,7 C 16,7 C 62 % 1019,0 hPa 0,0 l/m 0 min 0 min 0,0 UV-I 160 W/m 23,0 km/h (4 Bft)
20.06.2014 17:38 17,6 C 16,7 C 62 % 1019,1 hPa 0,0 l/m 0 min 0 min 0,0 UV-I 174 W/m 16,7 km/h (3 Bft)
20.06.2014 17:40 17,5 C 16,7 C 63 % 1019,1 hPa 0,0 l/m 0 min 0 min 0,0 UV-I 194 W/m 23,0 km/h (4 Bft)
20.06.2014 17:42 17,5 C 16,7 C 64 % 1019,1 hPa 0,0 l/m 0 min 0 min 0,0 UV-I 205 W/m 18,8 km/h (3 Bft)
20.06.2014 17:44 17,5 C 16,7 C 65 % 1019,2 hPa 0,0 l/m 0 min 0 min 0,0 UV-I 208 W/m 29,3 km/h (5 Bft)
20.06.2014 17:46 17,4 C 16,7 C 65 % 1019,1 hPa 0,0 l/m 0 min 0 min 0,0 UV-I 198 W/m 25,1 km/h (4 Bft)
20.06.2014 17:48 17,3 C 16,7 C 65 % 1019,2 hPa 0,0 l/m 0 min 0 min 0,0 UV-I 187 W/m 25,1 km/h (4 Bft)
20.06.2014 17:50 17,2 C 16,7 C 65 % 1019,2 hPa 0,0 l/m 0 min 0 min 0,0 UV-I 176 W/m 18,8 km/h (3 Bft)
20.06.2014 17:52 17,2 C 16,7 C 65 % 1019,2 hPa 0,0 l/m 0 min 0 min 0,0 UV-I 162 W/m 18,8 km/h (3 Bft)
20.06.2014 17:54 17,2 C 16,7 C 66 % 1019,2 hPa 0,0 l/m 0 min 0 min 0,0 UV-I 154 W/m 18,8 km/h (3 Bft)
20.06.2014 17:56 17,2 C 16,7 C 66 % 1019,2 hPa 0,0 l/m 0 min 0 min 0,0 UV-I 146 W/m 20,9 km/h (4 Bft)
20.06.2014 17:58 17,1 C 16,1 C 66 % 1019,2 hPa 0,0 l/m 0 min 0 min 0,0 UV-I 136 W/m 20,9 km/h (4 Bft)
20.06.2014 18:00 17,1 C 16,1 C 66 % 1019,1 hPa 0,0 l/m 0 min 0 min 0,0 UV-I 128 W/m 20,9 km/h (4 Bft)
20.06.2014 18:02 17,1 C 16,1 C 66 % 1019,1 hPa 0,0 l/m 0 min 0 min 0,0 UV-I 117 W/m 20,9 km/h (4 Bft)
20.06.2014 18:06 16,9 C 16,1 C 67 % 1019,2 hPa 0,0 l/m 0 min 0 min 0,0 UV-I 91 W/m 23,0 km/h (4 Bft)
20.06.2014 18:08 16,9 C 16,1 C 67 % 1019,2 hPa 0,0 l/m 0 min 0 min 0,0 UV-I 83 W/m 25,1 km/h (4 Bft)
20.06.2014 18:10 16,9 C 15,6 C 68 % 1019,2 hPa 0,0 l/m 0 min 0 min 0,0 UV-I 75 W/m 16,7 km/h (3 Bft)
20.06.2014 18:12 16,8 C 15,6 C 68 % 1019,2 hPa 0,0 l/m 0 min 0 min 0,0 UV-I 75 W/m 20,9 km/h (4 Bft)
20.06.2014 18:14 16,8 C 15,6 C 69 % 1019,2 hPa 0,0 l/m 0 min 0 min 0,0 UV-I 75 W/m 16,7 km/h (3 Bft)
20.06.2014 18:16 16,7 C 15,6 C 69 % 1019,1 hPa 0,0 l/m 0 min 0 min 0,0 UV-I 79 W/m 23,0 km/h (4 Bft)
20.06.2014 18:18 16,7 C 15,6 C 69 % 1019,1 hPa 0,0 l/m 0 min 0 min 0,0 UV-I 80 W/m 20,9 km/h (4 Bft)
20.06.2014 18:20 16,7 C 15,6 C 69 % 1019,1 hPa 0,0 l/m 0 min 0 min 0,0 UV-I 89 W/m 16,7 km/h (3 Bft)
20.06.2014 18:22 16,7 C 15,6 C 69 % 1019,2 hPa 0,0 l/m 0 min 0 min 0,0 UV-I 95 W/m 23,0 km/h (4 Bft)
20.06.2014 18:24 16,7 C 15,6 C 69 % 1019,1 hPa 0,0 l/m 0 min 0 min 0,0 UV-I 104 W/m 10,5 km/h (2 Bft)
20.06.2014 18:26 16,7 C 15,6 C 70 % 1019,1 hPa 0,0 l/m 0 min 0 min 0,0 UV-I 112 W/m 23,0 km/h (4 Bft)
20.06.2014 18:28 16,7 C 15,6 C 70 % 1019,1 hPa 0,0 l/m 0 min 0 min 0,0 UV-I 117 W/m 20,9 km/h (4 Bft)
20.06.2014 18:30 16,7 C 15,6 C 71 % 1019,1 hPa 0,0 l/m 0 min 0 min 0,0 UV-I 121 W/m 12,6 km/h (3 Bft)
20.06.2014 18:32 16,6 C 15,6 C 71 % 1019,2 hPa 0,0 l/m 0 min 0 min 0,0 UV-I 128 W/m 16,7 km/h (3 Bft)
20.06.2014 18:34 16,7 C 16,1 C 71 % 1019,1 hPa 0,0 l/m 0 min 0 min 0,0 UV-I 131 W/m 18,8 km/h (3 Bft)
20.06.2014 18:36 16,7 C 16,1 C 71 % 1019,1 hPa 0,0 l/m 0 min 0 min 0,0 UV-I 138 W/m 20,9 km/h (4 Bft)
20.06.2014 18:38 16,7 C 16,1 C 71 % 1019,2 hPa 0,0 l/m 0 min 0 min 0,0 UV-I 147 W/m 14,6 km/h (3 Bft)
20.06.2014 18:40 16,7 C 16,1 C 72 % 1019,1 hPa 0,0 l/m 0 min 0 min 0,0 UV-I 154 W/m 16,7 km/h (3 Bft)
20.06.2014 18:42 16,8 C 16,1 C 72 % 1019,2 hPa 0,0 l/m 0 min 0 min 0,0 UV-I 158 W/m 20,9 km/h (4 Bft)
20.06.2014 18:44 16,8 C 16,1 C 70 % 1019,1 hPa 0,0 l/m 0 min 0 min 0,0 UV-I 163 W/m 23,0 km/h (4 Bft)
20.06.2014 18:46 16,7 C 16,1 C 70 % 1019,1 hPa 0,0 l/m 0 min 0 min 0,0 UV-I 166 W/m 27,2 km/h (4 Bft)
20.06.2014 18:48 16,7 C 16,1 C 71 % 1019,1 hPa 0,0 l/m 0 min 0 min 0,0 UV-I 166 W/m 16,7 km/h (3 Bft)
20.06.2014 18:50 16,8 C 16,1 C 71 % 1019,1 hPa 0,0 l/m 0 min 0 min 0,0 UV-I 163 W/m 20,9 km/h (4 Bft)
20.06.2014 18:52 16,8 C 16,1 C 71 % 1019,1 hPa 0,0 l/m 0 min 0 min 0,0 UV-I 162 W/m 12,6 km/h (3 Bft)
20.06.2014 18:54 16,8 C 16,1 C 71 % 1019,2 hPa 0,0 l/m 0 min 0 min 0,0 UV-I 162 W/m 16,7 km/h (3 Bft)
20.06.2014 18:56 16,8 C 16,1 C 71 % 1019,1 hPa 0,0 l/m 0 min 0 min 0,0 UV-I 163 W/m 16,7 km/h (3 Bft)
20.06.2014 18:58 16,8 C 16,1 C 70 % 1019,1 hPa 0,0 l/m 0 min 0 min 0,0 UV-I 158 W/m 25,1 km/h (4 Bft)
20.06.2014 19:00 16,8 C 16,1 C 71 % 1019,1 hPa 0,0 l/m 0 min 0 min 0,0 UV-I 154 W/m 23,0 km/h (4 Bft)
20.06.2014 19:02 16,8 C 16,1 C 71 % 1019,1 hPa 0,0 l/m 0 min 0 min 0,0 UV-I 147 W/m 20,9 km/h (4 Bft)
20.06.2014 19:04 16,8 C 16,1 C 71 % 1019,1 hPa 0,0 l/m 0 min 0 min 0,0 UV-I 146 W/m 18,8 km/h (3 Bft)
20.06.2014 19:06 16,7 C 16,1 C 71 % 1019,2 hPa 0,0 l/m 0 min 0 min 0,0 UV-I 144 W/m 18,8 km/h (3 Bft)
20.06.2014 19:08 16,7 C 16,1 C 71 % 1019,2 hPa 0,0 l/m 0 min 0 min 0,0 UV-I 139 W/m 18,8 km/h (3 Bft)
20.06.2014 19:10 16,7 C 16,1 C 71 % 1019,2 hPa 0,0 l/m 0 min 0 min 0,0 UV-I 136 W/m 25,1 km/h (4 Bft)
20.06.2014 19:12 16,7 C 16,1 C 71 % 1019,2 hPa 0,0 l/m 0 min 0 min 0,0 UV-I 131 W/m 18,8 km/h (3 Bft)
20.06.2014 19:14 16,6 C 16,1 C 71 % 1019,2 hPa 0,0 l/m 0 min 0 min 0,0 UV-I 128 W/m 12,6 km/h (3 Bft)
20.06.2014 19:16 16,6 C 15,6 C 71 % 1019,2 hPa 0,0 l/m 0 min 0 min 0,0 UV-I 123 W/m 25,1 km/h (4 Bft)
20.06.2014 19:18 16,6 C 15,6 C 71 % 1019,1 hPa 0,0 l/m 0 min 0 min 0,0 UV-I 123 W/m 18,8 km/h (3 Bft)
20.06.2014 19:20 16,5 C 15,6 C 71 % 1019,2 hPa 0,0 l/m 0 min 0 min 0,0 UV-I 115 W/m 20,9 km/h (4 Bft)
20.06.2014 19:22 16,4 C 15,6 C 70 % 1019,2 hPa 0,0 l/m 0 min 0 min 0,0 UV-I 112 W/m 18,8 km/h (3 Bft)
20.06.2014 19:24 16,4 C 15,6 C 71 % 1019,2 hPa 0,0 l/m 0 min 0 min 0,0 UV-I 105 W/m 20,9 km/h (4 Bft)
20.06.2014 19:26 16,3 C 15,6 C 71 % 1019,2 hPa 0,0 l/m 0 min 0 min 0,0 UV-I 99 W/m 23,0 km/h (4 Bft)
20.06.2014 19:28 16,3 C 15,6 C 71 % 1019,2 hPa 0,0 l/m 0 min 0 min 0,0 UV-I 95 W/m 16,7 km/h (3 Bft)
20.06.2014 19:30 16,3 C 15,6 C 72 % 1019,2 hPa 0,0 l/m 0 min 0 min 0,0 UV-I 91 W/m 16,7 km/h (3 Bft)
20.06.2014 19:32 16,3 C 15,6 C 72 % 1019,2 hPa 0,0 l/m 0 min 0 min 0,0 UV-I 85 W/m 16,7 km/h (3 Bft)
20.06.2014 19:34 16,3 C 15,0 C 72 % 1019,2 hPa 0,0 l/m 0 min 0 min 0,0 UV-I 79 W/m 18,8 km/h (3 Bft)
20.06.2014 19:36 16,2 C 15,0 C 72 % 1019,2 hPa 0,0 l/m 0 min 0 min 0,0 UV-I 77 W/m 16,7 km/h (3 Bft)
20.06.2014 19:38 16,1 C 15,0 C 73 % 1019,3 hPa 0,0 l/m 0 min 0 min 0,0 UV-I 72 W/m 18,8 km/h (3 Bft)
20.06.2014 19:40 16,1 C 15,0 C 72 % 1019,3 hPa 0,0 l/m 0 min 0 min 0,0 UV-I 72 W/m 23,0 km/h (4 Bft)
20.06.2014 19:42 16,0 C 15,0 C 73 % 1019,2 hPa 0,0 l/m 0 min 0 min 0,0 UV-I 69 W/m 12,6 km/h (3 Bft)
20.06.2014 19:44 15,9 C 15,0 C 73 % 1019,2 hPa 0,0 l/m 0 min 0 min 0,0 UV-I 64 W/m 18,8 km/h (3 Bft)
20.06.2014 19:46 15,9 C 15,0 C 73 % 1019,2 hPa 0,0 l/m 0 min 0 min 0,0 UV-I 61 W/m 23,0 km/h (4 Bft)
20.06.2014 19:48 15,8 C 15,0 C 73 % 1019,2 hPa 0,0 l/m 0 min 0 min 0,0 UV-I 54 W/m 18,8 km/h (3 Bft)
20.06.2014 19:50 15,8 C 15,0 C 73 % 1019,2 hPa 0,0 l/m 0 min 0 min 0,0 UV-I 53 W/m 23,0 km/h (4 Bft)
20.06.2014 19:52 15,7 C 15,0 C 74 % 1019,2 hPa 0,0 l/m 0 min 0 min 0,0 UV-I 48 W/m 14,6 km/h (3 Bft)
20.06.2014 19:54 15,7 C 14,4 C 74 % 1019,3 hPa 0,0 l/m 0 min 0 min 0,0 UV-I 46 W/m 12,6 km/h (3 Bft)
20.06.2014 19:56 15,7 C 14,4 C 74 % 1019,3 hPa 0,0 l/m 0 min 0 min 0,0 UV-I 46 W/m 12,6 km/h (3 Bft)
20.06.2014 19:58 15,7 C 14,4 C 75 % 1019,2 hPa 0,0 l/m 0 min 0 min 0,0 UV-I 46 W/m 18,8 km/h (3 Bft)
20.06.2014 20:00 15,7 C 14,4 C 74 % 1019,2 hPa 0,0 l/m 0 min 0 min 0,0 UV-I 45 W/m 16,7 km/h (3 Bft)
20.06.2014 20:02 15,7 C 14,4 C 75 % 1019,2 hPa 0,0 l/m 0 min 0 min 0,0 UV-I 46 W/m 16,7 km/h (3 Bft)
20.06.2014 20:04 15,6 C 14,4 C 75 % 1019,2 hPa 0,0 l/m 0 min 0 min 0,0 UV-I 46 W/m 16,7 km/h (3 Bft)
20.06.2014 20:06 15,6 C 14,4 C 75 % 1019,2 hPa 0,0 l/m 0 min 0 min 0,0 UV-I 48 W/m 14,6 km/h (3 Bft)
20.06.2014 20:08 15,6 C 14,4 C 75 % 1019,3 hPa 0,0 l/m 0 min 0 min 0,0 UV-I 48 W/m 12,6 km/h (3 Bft)
20.06.2014 20:10 15,6 C 14,4 C 76 % 1019,2 hPa 0,0 l/m 0 min 0 min 0,0 UV-I 46 W/m 14,6 km/h (3 Bft)
20.06.2014 20:12 15,6 C 14,4 C 76 % 1019,2 hPa 0,0 l/m 0 min 0 min 0,0 UV-I 46 W/m 10,5 km/h (2 Bft)
20.06.2014 20:14 15,6 C 14,4 C 76 % 1019,3 hPa 0,0 l/m 0 min 0 min 0,0 UV-I 48 W/m 14,6 km/h (3 Bft)
20.06.2014 20:16 15,6 C 14,4 C 76 % 1019,2 hPa 0,0 l/m 0 min 0 min 0,0 UV-I 51 W/m 12,6 km/h (3 Bft)
20.06.2014 20:18 15,6 C 14,4 C 76 % 1019,2 hPa 0,0 l/m 0 min 0 min 0,0 UV-I 53 W/m 16,7 km/h (3 Bft)
20.06.2014 20:20 15,6 C 14,4 C 76 % 1019,2 hPa 0,0 l/m 0 min 0 min 0,0 UV-I 54 W/m 14,6 km/h (3 Bft)
20.06.2014 20:22 15,6 C 14,4 C 75 % 1019,2 hPa 0,0 l/m 0 min 0 min 0,0 UV-I 54 W/m 18,8 km/h (3 Bft)
20.06.2014 20:24 15,6 C 14,4 C 75 % 1019,2 hPa 0,0 l/m 0 min 0 min 0,0 UV-I 53 W/m 14,6 km/h (3 Bft)
20.06.2014 20:26 15,6 C 14,4 C 75 % 1019,2 hPa 0,0 l/m 0 min 0 min 0,0 UV-I 53 W/m 14,6 km/h (3 Bft)
20.06.2014 20:28 15,6 C 14,4 C 74 % 1019,2 hPa 0,0 l/m 0 min 0 min 0,0 UV-I 53 W/m 12,6 km/h (3 Bft)
20.06.2014 20:30 15,6 C 14,4 C 75 % 1019,2 hPa 0,0 l/m 0 min 0 min 0,0 UV-I 54 W/m 14,6 km/h (3 Bft)
20.06.2014 20:32 15,6 C 14,4 C 75 % 1019,2 hPa 0,0 l/m 0 min 0 min 0,0 UV-I 53 W/m 10,5 km/h (2 Bft)
20.06.2014 20:34 15,6 C 14,4 C 74 % 1019,2 hPa 0,0 l/m 0 min 0 min 0,0 UV-I 51 W/m 14,6 km/h (3 Bft)
20.06.2014 20:36 15,6 C 14,4 C 75 % 1019,2 hPa 0,0 l/m 0 min 0 min 0,0 UV-I 48 W/m 12,6 km/h (3 Bft)
20.06.2014 20:38 15,6 C 14,4 C 75 % 1019,2 hPa 0,0 l/m 0 min 0 min 0,0 UV-I 46 W/m 20,9 km/h (4 Bft)
20.06.2014 20:40 15,5 C 14,4 C 75 % 1019,1 hPa 0,0 l/m 0 min 0 min 0,0 UV-I 43 W/m 14,6 km/h (3 Bft)
20.06.2014 20:42 15,5 C 14,4 C 74 % 1019,2 hPa 0,0 l/m 0 min 0 min 0,0 UV-I 38 W/m 14,6 km/h (3 Bft)
20.06.2014 20:44 15,4 C 14,4 C 74 % 1019,2 hPa 0,0 l/m 0 min 0 min 0,0 UV-I 37 W/m 18,8 km/h (3 Bft)
20.06.2014 20:46 15,4 C 14,4 C 74 % 1019,2 hPa 0,0 l/m 0 min 0 min 0,0 UV-I 34 W/m 14,6 km/h (3 Bft)
20.06.2014 20:48 15,4 C 14,4 C 73 % 1019,1 hPa 0,0 l/m 0 min 0 min 0,0 UV-I 34 W/m 16,7 km/h (3 Bft)
20.06.2014 20:50 15,4 C 14,4 C 73 % 1019,1 hPa 0,0 l/m 0 min 0 min 0,0 UV-I 32 W/m 14,6 km/h (3 Bft)
20.06.2014 20:52 15,3 C 13,9 C 73 % 1019,2 hPa 0,0 l/m 0 min 0 min 0,0 UV-I 29 W/m 14,6 km/h (3 Bft)
20.06.2014 20:54 15,3 C 13,9 C 73 % 1019,1 hPa 0,0 l/m 0 min 0 min 0,0 UV-I 26 W/m 16,7 km/h (3 Bft)
20.06.2014 20:56 15,2 C 13,9 C 74 % 1019,1 hPa 0,0 l/m 0 min 0 min 0,0 UV-I 26 W/m 20,9 km/h (4 Bft)
20.06.2014 20:58 15,2 C 13,9 C 74 % 1019,1 hPa 0,0 l/m 0 min 0 min 0,0 UV-I 26 W/m 16,7 km/h (3 Bft)
20.06.2014 21:00 15,2 C 13,9 C 73 % 1019,1 hPa 0,0 l/m 0 min 0 min 0,0 UV-I 24 W/m 14,6 km/h (3 Bft)
20.06.2014 21:02 15,1 C 13,9 C 74 % 1019,2 hPa 0,0 l/m 0 min 0 min 0,0 UV-I 24 W/m 12,6 km/h (3 Bft)
20.06.2014 21:04 15,1 C 13,9 C 74 % 1019,1 hPa 0,0 l/m 0 min 0 min 0,0 UV-I 24 W/m 16,7 km/h (3 Bft)
20.06.2014 21:06 15,1 C 13,9 C 75 % 1019,2 hPa 0,0 l/m 0 min 0 min 0,0 UV-I 22 W/m 10,5 km/h (2 Bft)
20.06.2014 21:08 15,0 C 13,9 C 74 % 1019,2 hPa 0,0 l/m 0 min 0 min 0,0 UV-I 21 W/m 12,6 km/h (3 Bft)
20.06.2014 21:10 15,0 C 13,9 C 75 % 1019,1 hPa 0,0 l/m 0 min 0 min 0,0 UV-I 21 W/m 18,8 km/h (3 Bft)
20.06.2014 21:12 15,0 C 13,9 C 75 % 1019,2 hPa 0,0 l/m 0 min 0 min 0,0 UV-I 18 W/m 16,7 km/h (3 Bft)
20.06.2014 21:14 14,9 C 13,9 C 75 % 1019,2 hPa 0,0 l/m 0 min 0 min 0,0 UV-I 18 W/m 16,7 km/h (3 Bft)
20.06.2014 21:16 14,9 C 13,9 C 76 % 1019,2 hPa 0,0 l/m 0 min 0 min 0,0 UV-I 16 W/m 12,6 km/h (3 Bft)
20.06.2014 21:18 14,9 C 13,9 C 76 % 1019,1 hPa 0,0 l/m 0 min 0 min 0,0 UV-I 14 W/m 8,4 km/h (2 Bft)
20.06.2014 21:20 14,9 C 13,9 C 76 % 1019,2 hPa 0,0 l/m 0 min 0 min 0,0 UV-I 14 W/m 6,3 km/h (2 Bft)
20.06.2014 21:22 14,8 C 13,9 C 77 % 1019,2 hPa 0,0 l/m 0 min 0 min 0,0 UV-I 13 W/m 10,5 km/h (2 Bft)
20.06.2014 21:24 14,8 C 13,9 C 76 % 1019,2 hPa 0,0 l/m 0 min 0 min 0,0 UV-I 13 W/m 16,7 km/h (3 Bft)
20.06.2014 21:26 14,8 C 13,9 C 77 % 1019,2 hPa 0,0 l/m 0 min 0 min 0,0 UV-I 10 W/m 6,3 km/h (2 Bft)
20.06.2014 21:28 14,8 C 13,3 C 77 % 1019,2 hPa 0,0 l/m 0 min 0 min 0,0 UV-I 8 W/m 8,4 km/h (2 Bft)
20.06.2014 21:30 14,7 C 13,3 C 77 % 1019,2 hPa 0,0 l/m 0 min 0 min 0,0 UV-I 8 W/m 12,6 km/h (3 Bft)
20.06.2014 21:32 14,7 C 13,3 C 77 % 1019,2 hPa 0,0 l/m 0 min 0 min 0,0 UV-I 8 W/m 12,6 km/h (3 Bft)
20.06.2014 21:34 14,7 C 13,3 C 77 % 1019,2 hPa 0,0 l/m 0 min 0 min 0,0 UV-I 8 W/m 2,1 km/h (1 Bft)
20.06.2014 21:36 14,7 C 13,3 C 78 % 1019,2 hPa 0,0 l/m 0 min 0 min 0,0 UV-I 8 W/m 8,4 km/h (2 Bft)
20.06.2014 21:38 14,7 C 13,3 C 78 % 1019,2 hPa 0,0 l/m 0 min 0 min 0,0 UV-I 8 W/m 8,4 km/h (2 Bft)
20.06.2014 21:40 14,6 C 13,3 C 78 % 1019,3 hPa 0,0 l/m 0 min 0 min 0,0 UV-I 6 W/m 12,6 km/h (3 Bft)
20.06.2014 21:42 14,6 C 13,3 C 78 % 1019,3 hPa 0,0 l/m 0 min 0 min 0,0 UV-I 6 W/m 14,6 km/h (3 Bft)
20.06.2014 21:44 14,6 C 13,3 C 78 % 1019,3 hPa 0,0 l/m 0 min 0 min 0,0 UV-I 6 W/m 10,5 km/h (2 Bft)
20.06.2014 21:46 14,6 C 13,3 C 79 % 1019,3 hPa 0,0 l/m 0 min 0 min 0,0 UV-I 0 W/m 10,5 km/h (2 Bft)
20.06.2014 21:48 14,6 C 13,3 C 79 % 1019,3 hPa 0,0 l/m 0 min 0 min 0,0 UV-I 0 W/m 14,6 km/h (3 Bft)
20.06.2014 21:50 14,6 C 13,3 C 79 % 1019,3 hPa 0,0 l/m 0 min 0 min 0,0 UV-I 0 W/m 12,6 km/h (3 Bft)
20.06.2014 21:52 14,5 C 13,3 C 79 % 1019,3 hPa 0,0 l/m 0 min 0 min 0,0 UV-I 0 W/m 2,1 km/h (1 Bft)
20.06.2014 21:54 14,5 C 13,3 C 79 % 1019,3 hPa 0,0 l/m 0 min 0 min 0,0 UV-I 0 W/m 14,6 km/h (3 Bft)
20.06.2014 21:56 14,5 C 13,3 C 79 % 1019,4 hPa 0,0 l/m 0 min 0 min 0,0 UV-I 0 W/m 16,7 km/h (3 Bft)
20.06.2014 21:58 14,5 C 13,3 C 79 % 1019,4 hPa 0,0 l/m 0 min 0 min 0,0 UV-I 0 W/m 14,6 km/h (3 Bft)
20.06.2014 22:00 14,5 C 13,3 C 79 % 1019,4 hPa 0,0 l/m 0 min 0 min 0,0 UV-I 0 W/m 10,5 km/h (2 Bft)
20.06.2014 22:02 14,4 C 13,3 C 79 % 1019,4 hPa 0,0 l/m 0 min 0 min 0,0 UV-I 0 W/m 12,6 km/h (3 Bft)
20.06.2014 22:04 14,4 C 13,3 C 79 % 1019,4 hPa 0,0 l/m 0 min 0 min 0,0 UV-I 0 W/m 14,6 km/h (3 Bft)
20.06.2014 22:06 14,4 C 13,3 C 79 % 1019,4 hPa 0,0 l/m 0 min 0 min 0,0 UV-I 0 W/m 14,6 km/h (3 Bft)
20.06.2014 22:08 14,4 C 13,3 C 79 % 1019,4 hPa 0,0 l/m 0 min 0 min 0,0 UV-I 0 W/m 12,6 km/h (3 Bft)
20.06.2014 22:10 14,4 C 13,3 C 80 % 1019,4 hPa 0,0 l/m 0 min 0 min 0,0 UV-I 0 W/m 4,2 km/h (1 Bft)
20.06.2014 22:12 14,4 C 13,3 C 80 % 1019,4 hPa 0,0 l/m 0 min 0 min 0,0 UV-I 0 W/m 10,5 km/h (2 Bft)
20.06.2014 22:14 14,4 C 13,3 C 80 % 1019,4 hPa 0,0 l/m 0 min 0 min 0,0 UV-I 0 W/m 12,6 km/h (3 Bft)
20.06.2014 22:16 14,3 C 13,3 C 80 % 1019,4 hPa 0,0 l/m 0 min 0 min 0,0 UV-I 0 W/m 14,6 km/h (3 Bft)
20.06.2014 22:18 14,3 C 13,3 C 80 % 1019,4 hPa 0,0 l/m 0 min 0 min 0,0 UV-I 0 W/m 10,5 km/h (2 Bft)
20.06.2014 22:20 14,3 C 13,3 C 80 % 1019,5 hPa 0,0 l/m 0 min 0 min 0,0 UV-I 0 W/m 8,4 km/h (2 Bft)
20.06.2014 22:22 14,3 C 13,3 C 80 % 1019,5 hPa 0,0 l/m 0 min 0 min 0,0 UV-I 0 W/m 14,6 km/h (3 Bft)
20.06.2014 22:24 14,3 C 13,3 C 80 % 1019,5 hPa 0,0 l/m 0 min 0 min 0,0 UV-I 0 W/m 10,5 km/h (2 Bft)
20.06.2014 22:26 14,3 C 13,3 C 81 % 1019,5 hPa 0,0 l/m 0 min 0 min 0,0 UV-I 0 W/m 10,5 km/h (2 Bft)
20.06.2014 22:28 14,3 C 13,3 C 81 % 1019,5 hPa 0,0 l/m 0 min 0 min 0,0 UV-I 0 W/m 14,6 km/h (3 Bft)
20.06.2014 22:30 14,3 C 13,3 C 81 % 1019,5 hPa 0,0 l/m 0 min 0 min 0,0 UV-I 0 W/m 16,7 km/h (3 Bft)
20.06.2014 22:32 14,2 C 13,3 C 81 % 1019,5 hPa 0,0 l/m 0 min 0 min 0,0 UV-I 0 W/m 16,7 km/h (3 Bft)
20.06.2014 22:34 14,3 C 13,3 C 81 % 1019,6 hPa 0,0 l/m 0 min 0 min 0,0 UV-I 0 W/m 12,6 km/h (3 Bft)
20.06.2014 22:36 14,3 C 13,3 C 81 % 1019,5 hPa 0,0 l/m 0 min 0 min 0,0 UV-I 0 W/m 12,6 km/h (3 Bft)
20.06.2014 22:38 14,2 C 13,3 C 81 % 1019,5 hPa 0,0 l/m 0 min 0 min 0,0 UV-I 0 W/m 6,3 km/h (2 Bft)
20.06.2014 22:40 14,2 C 13,3 C 81 % 1019,5 hPa 0,0 l/m 0 min 0 min 0,0 UV-I 0 W/m 12,6 km/h (3 Bft)
20.06.2014 22:42 14,2 C 13,3 C 81 % 1019,5 hPa 0,0 l/m 0 min 0 min 0,0 UV-I 0 W/m 8,4 km/h (2 Bft)
20.06.2014 22:44 14,2 C 13,3 C 81 % 1019,5 hPa 0,0 l/m 0 min 0 min 0,0 UV-I 0 W/m 8,4 km/h (2 Bft)
20.06.2014 22:46 14,2 C 13,3 C 81 % 1019,5 hPa 0,0 l/m 0 min 0 min 0,0 UV-I 0 W/m 16,7 km/h (3 Bft)
20.06.2014 22:48 14,2 C 13,3 C 81 % 1019,5 hPa 0,0 l/m 0 min 0 min 0,0 UV-I 0 W/m 10,5 km/h (2 Bft)
20.06.2014 22:50 14,2 C 13,3 C 81 % 1019,5 hPa 0,0 l/m 0 min 0 min 0,0 UV-I 0 W/m 10,5 km/h (2 Bft)
20.06.2014 22:52 14,2 C 12,8 C 81 % 1019,5 hPa 0,0 l/m 0 min 0 min 0,0 UV-I 0 W/m 8,4 km/h (2 Bft)
20.06.2014 22:54 14,2 C 12,8 C 81 % 1019,5 hPa 0,0 l/m 0 min 0 min 0,0 UV-I 0 W/m 6,3 km/h (2 Bft)
20.06.2014 22:56 14,2 C 12,8 C 82 % 1019,5 hPa 0,0 l/m 0 min 0 min 0,0 UV-I 0 W/m 10,5 km/h (2 Bft)
20.06.2014 22:58 14,2 C 12,8 C 82 % 1019,5 hPa 0,0 l/m 0 min 0 min 0,0 UV-I 0 W/m 8,4 km/h (2 Bft)
20.06.2014 23:00 14,2 C 12,8 C 82 % 1019,5 hPa 0,0 l/m 0 min 0 min 0,0 UV-I 0 W/m 12,6 km/h (3 Bft)
20.06.2014 23:02 14,2 C 12,8 C 82 % 1019,5 hPa 0,0 l/m 0 min 0 min 0,0 UV-I 0 W/m 10,5 km/h (2 Bft)
20.06.2014 23:04 14,2 C 12,8 C 82 % 1019,5 hPa 0,0 l/m 0 min 0 min 0,0 UV-I 0 W/m 8,4 km/h (2 Bft)
20.06.2014 23:06 14,2 C 12,8 C 82 % 1019,5 hPa 0,0 l/m 0 min 0 min 0,0 UV-I 0 W/m 2,1 km/h (1 Bft)
20.06.2014 23:08 14,2 C 12,8 C 82 % 1019,5 hPa 0,0 l/m 0 min 0 min 0,0 UV-I 0 W/m 0,0 km/h (0 Bft)
20.06.2014 23:10 14,2 C 12,8 C 82 % 1019,5 hPa 0,0 l/m 0 min 0 min 0,0 UV-I 0 W/m 6,3 km/h (2 Bft)
20.06.2014 23:12 14,2 C 12,8 C 83 % 1019,5 hPa 0,0 l/m 0 min 0 min 0,0 UV-I 0 W/m 0,0 km/h (0 Bft)
20.06.2014 23:14 14,1 C 12,8 C 83 % 1019,5 hPa 0,0 l/m 0 min 0 min 0,0 UV-I 0 W/m 6,3 km/h (2 Bft)
20.06.2014 23:16 14,1 C 12,8 C 83 % 1019,5 hPa 0,0 l/m 0 min 0 min 0,0 UV-I 0 W/m 0,0 km/h (0 Bft)
20.06.2014 23:18 14,1 C 12,8 C 83 % 1019,5 hPa 0,0 l/m 0 min 0 min 0,0 UV-I 0 W/m 0,0 km/h (0 Bft)
20.06.2014 23:20 14,0 C 12,8 C 83 % 1019,5 hPa 0,0 l/m 0 min 0 min 0,0 UV-I 0 W/m 0,0 km/h (0 Bft)
20.06.2014 23:22 13,9 C 12,8 C 83 % 1019,5 hPa 0,0 l/m 0 min 0 min 0,0 UV-I 0 W/m 0,0 km/h (0 Bft)
20.06.2014 23:24 13,9 C 12,8 C 83 % 1019,5 hPa 0,0 l/m 0 min 0 min 0,0 UV-I 0 W/m 0,0 km/h (0 Bft)
20.06.2014 23:26 13,8 C 12,2 C 84 % 1019,4 hPa 0,0 l/m 0 min 0 min 0,0 UV-I 0 W/m 0,0 km/h (0 Bft)
20.06.2014 23:28 13,8 C 12,2 C 84 % 1019,4 hPa 0,0 l/m 0 min 0 min 0,0 UV-I 0 W/m 2,1 km/h (1 Bft)
20.06.2014 23:30 13,8 C 12,2 C 84 % 1019,4 hPa 0,0 l/m 0 min 0 min 0,0 UV-I 0 W/m 16,7 km/h (3 Bft)
20.06.2014 23:32 13,8 C 12,2 C 84 % 1019,4 hPa 0,0 l/m 0 min 0 min 0,0 UV-I 0 W/m 10,5 km/h (2 Bft)
20.06.2014 23:34 13,7 C 12,2 C 84 % 1019,4 hPa 0,0 l/m 0 min 0 min 0,0 UV-I 0 W/m 0,0 km/h (0 Bft)
20.06.2014 23:36 13,7 C 12,2 C 84 % 1019,3 hPa 0,0 l/m 0 min 0 min 0,0 UV-I 0 W/m 0,0 km/h (0 Bft)
20.06.2014 23:38 13,7 C 12,2 C 84 % 1019,3 hPa 0,0 l/m 0 min 0 min 0,0 UV-I 0 W/m 0,0 km/h (0 Bft)
20.06.2014 23:40 13,6 C 12,2 C 84 % 1019,4 hPa 0,0 l/m 0 min 0 min 0,0 UV-I 0 W/m 0,0 km/h (0 Bft)
20.06.2014 23:42 13,6 C 12,2 C 85 % 1019,4 hPa 0,0 l/m 0 min 0 min 0,0 UV-I 0 W/m 4,2 km/h (1 Bft)
20.06.2014 23:44 13,4 C 12,2 C 85 % 1019,4 hPa 0,0 l/m 0 min 0 min 0,0 UV-I 0 W/m 4,2 km/h (1 Bft)
20.06.2014 23:46 13,4 C 12,2 C 85 % 1019,4 hPa 0,0 l/m 0 min 0 min 0,0 UV-I 0 W/m 0,0 km/h (0 Bft)
20.06.2014 23:48 13,4 C 11,7 C 85 % 1019,4 hPa 0,0 l/m 0 min 0 min 0,0 UV-I 0 W/m 0,0 km/h (0 Bft)
20.06.2014 23:50 13,3 C 11,7 C 86 % 1019,4 hPa 0,0 l/m 0 min 0 min 0,0 UV-I 0 W/m 0,0 km/h (0 Bft)
20.06.2014 23:52 13,3 C 11,7 C 86 % 1019,4 hPa 0,0 l/m 0 min 0 min 0,0 UV-I 0 W/m 0,0 km/h (0 Bft)
20.06.2014 23:54 13,3 C 11,7 C 86 % 1019,4 hPa 0,0 l/m 0 min 0 min 0,0 UV-I 0 W/m 2,1 km/h (1 Bft)
20.06.2014 23:56 13,2 C 11,7 C 86 % 1019,3 hPa 0,0 l/m 0 min 0 min 0,0 UV-I 0 W/m 0,0 km/h (0 Bft)
20.06.2014 23:58 13,2 C 11,7 C 86 % 1019,3 hPa 0,0 l/m 0 min 0 min 0,0 UV-I 0 W/m 0,0 km/h (0 Bft)
_ Min-Zeit 01:16 00:40 16:44 03:20 - - - - - 00:00
Minimum _ 11,6 C 10,0 C 60 % 1018,3 hPa - - - - - 0,0 km/h (0 Bft)
_ Max-Zeit 16:38 12:44 07:24 12:02 06:38 09:24 05:42 12:50 12:36 11:02
Maximum _ 19,0 C 21,7 C 98 % 1019,7 hPa 0,4 l/m 2 min 2 min 5,4 UV-I 1344 W/m 35,6 km/h
N (5 Bft)
Durchschnitt _ 14,5 C 13,8 C 83 % 1019,0 hPa #1,8 l/m #3:22 h #46 min. 1,8 UV-I 265 W/m 12,6 km/h (3 Bft)
© 2014 W. Hausmann